M I D A S
Marine Information and Data Acquisition System
Tripno 1078 of the Zeeleeuw from 2006-04-28 07:14:02 to 2006-04-28 11:53:19
Back to CruiseResearch ActivitiesStationsMapUnderway DataData graphs

EquipmentUnitsComment
TimeDGPSUTC
LatitudeDGPSDM.mWGS84
LongitudeDGPSDM.mWGS84
TemperatureSBE03/SBE38deg celciusITS90
ConductivitySBE21S/mITS90
SalinitySBE21 Practical Salinity Units
ChlorophylAChelsea fluorimeterg/lCalibrated in Aceton
Missing or incorrect values are displayed as -999
Sea surface data collected by the RV Zeeleeuw from 2006-04-28 07:14:48 to 2006-04-28 12:05:21
                                                                                    Next 1000 lines
Time Latitude Longitude Temperature Conductivity Salinity ChlorophylA
2006-04-28 07:14:58 51°13.603 2°56.096 12.1924 3.282076 27.594669 12.80364
2006-04-28 07:15:03 51°13.604 2°56.093 12.1324 3.303978 27.827378 12.668802
2006-04-28 07:15:08 51°13.604 2°56.089 12.1196 3.307032 27.877266 12.500255
2006-04-28 07:15:13 51°13.605 2°56.084 12.0836 3.307032 27.877266 12.500255
2006-04-28 07:15:18 51°13.607 2°56.079 12.0487 3.29387 27.766616 12.432836
2006-04-28 07:15:23 51°13.608 2°56.073 12.0548 3.292607 27.758292 12.331708
2006-04-28 07:15:28 51°13.61 2°56.067 11.9866 3.29545 27.812585 12.23058
2006-04-28 07:15:33 51°13.612 2°56.06 11.9574 3.292081 27.800797 12.163161
2006-04-28 07:15:38 51°13.614 2°56.053 11.9221 3.270917 27.630162 12.129452
2006-04-28 07:15:42 51°13.616 2°56.047 11.9011 3.279762 27.738302 12.466546
2006-04-28 07:15:48 51°13.619 2°56.038 11.8885 3.279762 27.738302 12.466546
2006-04-28 07:15:53 51°13.622 2°56.03 11.8549 3.263443 27.612151 13.107024
2006-04-28 07:15:58 51°13.624 2°56.023 11.8184 3.285344 27.842873 13.208153
2006-04-28 07:16:02 51°13.625 2°56.016 11.82 3.276921 27.788897 13.241862
2006-04-28 07:16:08 51°13.628 2°56.007 11.8337 3.290609 27.94783 13.073315
2006-04-28 07:16:13 51°13.629 2°55.998 11.8086 3.278817 27.86858 12.904768
2006-04-28 07:16:18 51°13.631 2°55.988 11.8395 3.278817 27.86858 12.904768
2006-04-28 07:16:23 51°13.633 2°55.978 11.7811 3.304614 28.13973 12.702512
2006-04-28 07:16:28 51°13.635 2°55.969 11.8047 3.302719 28.146728 12.76993
2006-04-28 07:16:33 51°13.637 2°55.96 11.7568 3.302509 28.166681 13.107024
2006-04-28 07:16:38 51°13.639 2°55.951 11.7264 3.292927 28.099923 13.410409
2006-04-28 07:16:43 51°13.642 2°55.943 11.7249 3.292927 28.099923 13.410409
2006-04-28 07:16:48 51°13.642 2°55.935 11.7086 3.321463 28.376192 13.680084
2006-04-28 07:16:53 51°13.644 2°55.926 11.7186 3.307143 28.254486 13.781212
2006-04-28 07:16:58 51°13.645 2°55.918 11.7008 3.309354 28.282564 13.612665
2006-04-28 07:17:03 51°13.647 2°55.91 11.6939 3.308196 28.286538 13.241862
2006-04-28 07:17:08 51°13.65 2°55.902 11.6972 3.296403 28.187444 12.871059
2006-04-28 07:17:13 51°13.652 2°55.894 11.6904 3.296403 28.187444 12.871059
2006-04-28 07:17:18 51°13.654 2°55.887 11.6893 3.30609 28.303683 12.635093
2006-04-28 07:17:23 51°13.657 2°55.879 11.6975 3.302511 28.283521 12.466546
2006-04-28 07:17:28 51°13.659 2°55.872 11.708 3.305354 28.323069 12.264289
2006-04-28 07:17:33 51°13.662 2°55.865 11.7025 3.305564 28.331668 12.163161
2006-04-28 07:17:38 51°13.665 2°55.857 11.7115 3.301353 28.297104 12.062033
2006-04-28 07:17:42 51°13.667 2°55.852 11.7169 3.290507 28.199603 12.062033
2006-04-28 07:17:48 51°13.671 2°55.843 11.707 3.290507 28.199603 12.062033
2006-04-28 07:17:53 51°13.674 2°55.835 11.6891 3.280399 28.112084 12.095742
2006-04-28 07:17:58 51°13.678 2°55.827 11.6839 3.271555 28.031189 12.095742
2006-04-28 07:18:02 51°13.681 2°55.821 11.6937 3.271134 28.026008 12.028324
2006-04-28 07:18:08 51°13.685 2°55.811 11.6761 3.270291 28.016834 12.028324
2006-04-28 07:18:13 51°13.689 2°55.803 11.6877 3.250392 27.825316 12.062033
2006-04-28 07:18:18 51°13.692 2°55.796 11.6658 3.250392 27.825316 12.062033
2006-04-28 07:18:22 51°13.694 2°55.79 11.6587 3.257025 27.886373 12.062033
2006-04-28 07:18:28 51°13.698 2°55.782 11.6491 3.231651 27.650245 12.129452
2006-04-28 07:18:33 51°13.7 2°55.776 11.651 3.251024 27.838971 12.297999
2006-04-28 07:18:38 51°13.703 2°55.769 11.6642 3.253445 27.865459 12.331708
2006-04-28 07:18:42 51°13.704 2°55.764 11.6816 3.256077 27.893361 12.533965
2006-04-28 07:18:45 51°13.706 2°55.761 11.662 3.256077 27.893361 12.533965
2006-04-28 07:18:52 51°13.709 2°55.752 11.6629 3.258183 27.91865 12.76993
2006-04-28 07:18:57 51°13.711 2°55.747 11.6704 3.250076 27.847119 12.76993
2006-04-28 07:19:01 51°13.712 2°55.743 11.6784 3.26071 27.95625 12.837349
2006-04-28 07:19:06 51°13.713 2°55.738 11.6809 3.263764 27.988189 12.80364
2006-04-28 07:19:12 51°13.714 2°55.733 11.6884 3.259552 27.948823 12.76993
2006-04-28 07:19:18 51°13.715 2°55.732 11.6976 3.259552 27.948823 12.76993
2006-04-28 07:19:22 51°13.715 2°55.732 11.6811 3.25155 27.870554 12.736221
2006-04-28 07:19:28 51°13.715 2°55.735 11.7036 3.24418 27.802446 12.702512
2006-04-28 07:19:33 51°13.717 2°55.739 11.7108 3.238074 27.746327 12.668802
2006-04-28 07:19:38 51°13.718 2°55.743 11.7658 3.223123 27.601737 12.601383
2006-04-28 07:19:42 51°13.72 2°55.747 11.7963 3.213227 27.505691 12.601383
2006-04-28 07:19:48 51°13.72 2°55.752 11.8665 3.213227 27.505691 12.601383
2006-04-28 07:19:53 51°13.72 2°55.755 11.9306 3.210911 27.480267 12.837349
2006-04-28 07:19:57 51°13.721 2°55.757 11.9803 3.210805 27.477522 13.241862
2006-04-28 07:20:02 51°13.721 2°55.759 11.9897 3.205541 27.424803 13.612665
2006-04-28 07:20:08 51°13.722 2°55.76 11.985 3.198066 27.34714 13.781212
2006-04-28 07:20:13 51°13.722 2°55.759 11.9716 3.158061 26.950968 13.747503
2006-04-28 07:20:18 51°13.721 2°55.758 12.0569 3.158061 26.950968 13.747503
2006-04-28 07:20:23 51°13.719 2°55.756 12.0031 3.112059 26.491191 13.814922
2006-04-28 07:20:28 51°13.718 2°55.753 11.9861 3.032379 25.704783 13.91605
2006-04-28 07:20:33 51°13.717 2°55.752 11.9755 2.981441 25.18791 13.949759
2006-04-28 07:20:38 51°13.716 2°55.749 11.9309 2.942398 24.796783 13.848631
2006-04-28 07:20:42 51°13.714 2°55.746 11.9373 2.942398 24.796783 13.848631
2006-04-28 07:20:48 51°13.712 2°55.743 11.9059 2.924824 24.6165 13.814922
2006-04-28 07:20:53 51°13.71 2°55.741 11.9279 2.92777 24.634507 13.680084
2006-04-28 07:20:58 51°13.709 2°55.739 11.9571 2.930506 24.645375 13.680084
2006-04-28 07:21:03 51°13.708 2°55.738 11.9086 2.925666 24.602579 13.578956
2006-04-28 07:21:08 51°13.708 2°55.737 11.9143 2.924087 24.590534 13.477828
2006-04-28 07:21:13 51°13.709 2°55.737 11.9346 2.935557 24.70933 13.34299
2006-04-28 07:21:18 51°13.711 2°55.738 11.9149 2.935557 24.70933 13.34299
2006-04-28 07:21:22 51°13.712 2°55.738 11.9112 2.934295 24.708523 13.275571
2006-04-28 07:21:28 51°13.715 2°55.74 11.923 2.954079 24.901657 13.241862
2006-04-28 07:21:33 51°13.718 2°55.741 11.9358 2.966181 25.016263 13.241862
2006-04-28 07:21:38 51°13.721 2°55.74 11.921 2.974705 25.097662 13.241862
2006-04-28 07:21:42 51°13.725 2°55.739 11.9503 2.983861 25.187636 13.241862
2006-04-28 07:21:47 51°13.729 2°55.736 11.9278 2.983861 25.187636 13.241862
2006-04-28 07:21:53 51°13.736 2°55.731 11.9243 2.988912 25.234669 13.241862
2006-04-28 07:21:58 51°13.741 2°55.725 11.8965 2.996279 25.304344 13.275571
2006-04-28 07:22:02 51°13.746 2°55.72 11.8957 2.982809 25.183672 13.309281
2006-04-28 07:22:08 51°13.755 2°55.712 11.8874 2.994806 25.293283 13.34299
2006-04-28 07:22:12 51°13.761 2°55.705 11.8985 2.975442 25.114032 13.545247
2006-04-28 07:22:16 51°13.767 2°55.699 11.8802 2.975442 25.114032 13.545247
2006-04-28 07:22:22 51°13.777 2°55.688 11.8967 3.00312 25.368077 13.612665
2006-04-28 07:22:27 51°13.786 2°55.679 11.8832 3.006593 25.401512 13.713794
2006-04-28 07:22:33 51°13.799 2°55.669 11.8989 3.015223 25.488938 14.050888
2006-04-28 07:22:38 51°13.81 2°55.661 11.9351 3.032063 25.649291 14.623947
2006-04-28 07:22:42 51°13.818 2°55.653 12.0435 3.032063 25.649291 14.623947
2006-04-28 07:22:48 51°13.83 2°55.64 11.9279 3.051534 25.835484 14.927332
2006-04-28 07:22:53 51°13.841 2°55.63 11.9662 3.060797 25.924239 15.129589
2006-04-28 07:22:57 51°13.851 2°55.623 11.9773 3.057429 25.898212 15.264426
2006-04-28 07:23:02 51°13.86 2°55.611 11.9224 3.03701 25.707389 15.399264
2006-04-28 07:23:07 51°13.874 2°55.603 11.8396 3.028379 25.624087 15.500392
2006-04-28 07:23:12 51°13.886 2°55.594 11.8555 3.002804 25.372615 15.432973
2006-04-28 07:23:18 51°13.901 2°55.583 11.7901 3.002804 25.372615 15.432973
2006-04-28 07:23:22 51°13.911 2°55.575 11.7631 2.989333 25.229027 15.432973
2006-04-28 07:23:26 51°13.92 2°55.567 11.7633 2.977967 25.125372 15.365554
2006-04-28 07:23:33 51°13.938 2°55.554 11.763 2.98807 25.209844 15.331845
2006-04-28 07:23:37 51°13.948 2°55.547 11.7182 3.008908 25.413459 15.298136
2006-04-28 07:23:42 51°13.961 2°55.538 11.6599 3.037852 25.709834 15.02846
2006-04-28 07:23:48 51°13.976 2°55.527 11.6566 3.037852 25.709834 15.02846
2006-04-28 07:23:52 51°13.985 2°55.519 11.6669 3.057113 25.913289 14.725076
2006-04-28 07:23:58 51°14 2°55.509 11.6371 3.093533 26.281491 14.48911
2006-04-28 07:24:02 51°14.01 2°55.502 11.6037 3.120269 26.545933 14.152016
2006-04-28 07:24:08 51°14.024 2°55.492 11.5829 3.156166 26.896627 13.848631
2006-04-28 07:24:13 51°14.035 2°55.483 11.6029 3.193434 27.268653 13.545247
2006-04-28 07:24:18 51°14.047 2°55.474 11.5855 3.193434 27.268653 13.545247
2006-04-28 07:24:22 51°14.057 2°55.469 11.5655 3.223334 27.581486 13.410409
2006-04-28 07:24:26 51°14.067 2°55.463 11.555 3.248286 27.834878 13.275571
2006-04-28 07:24:31 51°14.079 2°55.454 11.5699 3.267554 28.031895 13.208153
2006-04-28 07:24:38 51°14.095 2°55.442 11.5787 3.28398 28.209449 13.140734
2006-04-28 07:24:42 51°14.105 2°55.435 11.5868 3.29293 28.314419 13.140734
2006-04-28 07:24:48 51°14.119 2°55.425 11.5726 3.29293 28.314419 13.140734
2006-04-28 07:24:52 51°14.129 2°55.417 11.572 3.296511 28.355735 13.140734
2006-04-28 07:24:58 51°14.144 2°55.405 11.5581 3.305566 28.451059 13.140734
2006-04-28 07:25:02 51°14.153 2°55.397 11.5527 3.307988 28.486267 13.174443
2006-04-28 07:25:08 51°14.168 2°55.383 11.5525 3.312621 28.536521 13.241862
2006-04-28 07:25:12 51°14.177 2°55.373 11.5282 3.313148 28.542151 13.444118
2006-04-28 07:25:17 51°14.189 2°55.36 11.5333 3.313148 28.542151 13.444118
2006-04-28 07:25:22 51°14.201 2°55.347 11.5202 3.305777 28.468825 13.781212
2006-04-28 07:25:28 51°14.215 2°55.328 11.5148 3.304197 28.456192 13.949759
2006-04-28 07:25:33 51°14.226 2°55.312 11.519 3.297143 28.394384 14.017178
2006-04-28 07:25:38 51°14.238 2°55.295 11.5101 3.29788 28.405043 14.017178
2006-04-28 07:25:43 51°14.248 2°55.276 11.5121 3.300512 28.436204 13.848631
2006-04-28 07:25:48 51°14.258 2°55.258 11.5076 3.300512 28.436204 13.848631
2006-04-28 07:25:53 51°14.269 2°55.239 11.505 3.299775 28.436448 13.848631
2006-04-28 07:25:58 51°14.279 2°55.22 11.4977 3.305988 28.501801 13.814922
2006-04-28 07:26:02 51°14.287 2°55.204 11.4898 3.306409 28.514337 13.848631
2006-04-28 07:26:08 51°14.299 2°55.18 11.4794 3.309568 28.550591 13.882341
2006-04-28 07:26:13 51°14.308 2°55.16 11.4843 3.309568 28.550591 13.882341
2006-04-28 07:26:18 51°14.318 2°55.14 11.4657 3.314307 28.595853 13.814922
2006-04-28 07:26:23 51°14.328 2°55.119 11.4615 3.31378 28.594485 13.747503
2006-04-28 07:26:26 51°14.333 2°55.108 11.4602 3.306725 28.528919 13.781212
2006-04-28 07:26:30 51°14.341 2°55.092 11.4384 3.310095 28.565985 13.814922
2006-04-28 07:26:37 51°14.354 2°55.062 11.4197 3.292721 28.403683 13.814922
2006-04-28 07:26:42 51°14.361 2°55.041 11.4183 3.313254 28.606554 13.983469
2006-04-28 07:26:47 51°14.368 2°55.019 11.394 3.313254 28.606554 13.983469
2006-04-28 07:26:52 51°14.374 2°54.995 11.3687 3.319361 28.669232 14.152016
2006-04-28 07:26:57 51°14.379 2°54.97 11.3238 3.322099 28.707071 14.354272
2006-04-28 07:27:01 51°14.382 2°54.949 11.3231 3.339263 28.876928 14.590238
2006-04-28 07:27:05 51°14.385 2°54.928 11.276 3.354006 29.027487 14.859913
2006-04-28 07:27:12 51°14.389 2°54.89 11.2475 3.364536 29.137819 15.06217
2006-04-28 07:27:17 51°14.392 2°54.863 11.236 3.364536 29.137819 15.06217
2006-04-28 07:27:22 51°14.395 2°54.834 11.2012 3.374014 29.239412 15.500392
2006-04-28 07:27:25 51°14.396 2°54.817 11.1947 3.37591 29.272656 16.511674
2006-04-28 07:27:32 51°14.399 2°54.777 11.1716 3.394234 29.474676 17.455537
2006-04-28 07:27:37 51°14.402 2°54.748 11.1451 3.404134 29.592185 18.096016
2006-04-28 07:27:41 51°14.405 2°54.725 11.1192 3.404134 29.592185 18.096016
2006-04-28 07:27:46 51°14.408 2°54.696 11.0967 3.410453 29.677289 19.174717
2006-04-28 07:27:52 51°14.412 2°54.661 11.0786 3.414666 29.745411 19.680358
2006-04-28 07:27:56 51°14.416 2°54.638 11.0598 3.427936 29.896751 20.11858
2006-04-28 07:28:02 51°14.42 2°54.603 11.0422 3.437204 30.008362 20.051161
2006-04-28 07:28:05 51°14.421 2°54.585 11.0098 3.44584 30.103666 19.916324
2006-04-28 07:28:11 51°14.423 2°54.549 11.0111 3.459111 30.259683 19.950033
2006-04-28 07:28:18 51°14.421 2°54.507 11.0056 3.459111 30.259683 19.950033
2006-04-28 07:28:22 51°14.418 2°54.484 10.9913 3.459427 30.284317 19.950033
2006-04-28 07:28:26 51°14.415 2°54.46 10.9926 3.475015 30.456791 20.017452
2006-04-28 07:28:32 51°14.409 2°54.426 10.9955 3.480597 30.53022 19.882614
2006-04-28 07:28:38 51°14.402 2°54.392 10.9733 3.467538 30.424862 19.714067
2006-04-28 07:28:42 51°14.396 2°54.369 10.9735 3.492394 30.68955 19.478101
2006-04-28 07:28:45 51°14.391 2°54.353 10.9668 3.492394 30.68955 19.478101
2006-04-28 07:28:52 51°14.378 2°54.317 10.9691 3.488708 30.665563 19.275845
2006-04-28 07:28:56 51°14.37 2°54.297 10.9638 3.492816 30.722286 19.242136
2006-04-28 07:29:01 51°14.359 2°54.272 10.9749 3.498925 30.789943 19.275845
2006-04-28 07:29:07 51°14.345 2°54.242 10.9779 3.491868 30.725697 19.343264
2006-04-28 07:29:12 51°14.334 2°54.218 10.9623 3.491868 30.725697 19.343264
2006-04-28 07:29:17 51°14.323 2°54.193 10.9723 3.499768 30.809538 19.343264
2006-04-28 07:29:21 51°14.315 2°54.173 10.9795 3.498504 30.803876 19.174717
2006-04-28 07:29:25 51°14.306 2°54.152 11.0127 3.495555 30.781741 18.97246
2006-04-28 07:29:31 51°14.296 2°54.119 10.987 3.498715 30.815971 18.702785
2006-04-28 07:29:38 51°14.284 2°54.081 10.987 3.497872 30.808404 18.500529
2006-04-28 07:29:42 51°14.278 2°54.059 10.9774 3.497872 30.808404 18.500529
2006-04-28 07:29:48 51°14.269 2°54.025 10.9866 3.499452 30.82251 18.264563
2006-04-28 07:29:52 51°14.263 2°54.003 10.9633 3.497135 30.801196 17.961178
2006-04-28 07:29:57 51°14.255 2°53.975 10.9719 3.496608 30.793373 17.792631
2006-04-28 07:30:02 51°14.247 2°53.948 10.962 3.497451 30.79492 17.624084
2006-04-28 07:30:06 51°14.241 2°53.926 10.9621 3.505139 30.864711 17.388118
2006-04-28 07:30:12 51°14.23 2°53.893 10.9651 3.511143 30.926085 17.118443
2006-04-28 07:30:17 51°14.22 2°53.866 10.9644 3.511143 30.926085 17.118443
2006-04-28 07:30:22 51°14.211 2°53.839 10.9679 3.508194 30.901277 16.949896
2006-04-28 07:30:26 51°14.203 2°53.817 10.9785 3.514198 30.964693 16.848768
2006-04-28 07:30:32 51°14.193 2°53.784 10.976 3.512302 30.948838 16.848768
2006-04-28 07:30:37 51°14.184 2°53.757 10.9883 3.513987 30.970032 16.916187
2006-04-28 07:30:41 51°14.178 2°53.735 10.9745 3.520728 31.037345 16.882477
2006-04-28 07:30:47 51°14.169 2°53.7 10.9768 3.520728 31.037345 16.882477
2006-04-28 07:30:51 51°14.163 2°53.677 10.9854 3.517463 31.007411 16.848768
2006-04-28 07:30:58 51°14.152 2°53.638 10.9648 3.513777 30.96999 16.781349
2006-04-28 07:31:02 51°14.146 2°53.615 10.9638 3.521782 31.04563 16.646512
2006-04-28 07:31:08 51°14.137 2°53.581 10.9664 3.51799 31.005154 16.444255
2006-04-28 07:31:12 51°14.131 2°53.558 10.9631 3.52136 31.035438 16.208289
2006-04-28 07:31:16 51°14.124 2°53.535 10.972 3.52136 31.035438 16.208289
2006-04-28 07:31:22 51°14.115 2°53.501 10.9742 3.528523 31.106209 16.006033
2006-04-28 07:31:25 51°14.109 2°53.484 10.9795 3.517568 30.999012 15.871195
2006-04-28 07:31:32 51°14.097 2°53.445 10.9713 3.524204 31.063267 15.803777
2006-04-28 07:31:37 51°14.088 2°53.417 10.9663 3.529049 31.116772 15.770067
2006-04-28 07:31:41 51°14.08 2°53.395 10.9763 3.532736 31.157606 15.837486
2006-04-28 07:31:45 51°14.072 2°53.373 10.9696 3.532736 31.157606 15.837486
2006-04-28 07:31:52 51°14.059 2°53.334 10.9836 3.520518 31.037306 15.871195
2006-04-28 07:31:57 51°14.049 2°53.307 10.9768 3.527891 31.107456 15.972324
2006-04-28 07:32:01 51°14.042 2°53.284 10.9805 3.533684 31.161472 15.972324
2006-04-28 07:32:05 51°14.034 2°53.262 10.9818 3.538108 31.205473 16.039742
2006-04-28 07:32:11 51°14.023 2°53.228 10.9883 3.541584 31.240877 16.107161
2006-04-28 07:32:17 51°14.013 2°53.194 10.9882 3.541584 31.240877 16.107161
2006-04-28 07:32:22 51°14.004 2°53.165 10.9953 3.536001 31.185519 16.039742
2006-04-28 07:32:25 51°13.999 2°53.148 10.9959 3.538003 31.203086 16.073452
2006-04-28 07:32:32 51°13.987 2°53.108 10.9979 3.544323 31.262272 15.972324
2006-04-28 07:32:38 51°13.977 2°53.073 11.0038 3.534843 31.168077 16.039742
2006-04-28 07:32:42 51°13.97 2°53.05 11.0083 3.534843 31.168077 16.039742
2006-04-28 07:32:46 51°13.962 2°53.028 11.0102 3.550958 31.324561 16.039742
2006-04-28 07:32:52 51°13.951 2°52.993 11.0162 3.545376 31.267155 16.208289
2006-04-28 07:32:57 51°13.941 2°52.965 11.0166 3.555593 31.363841 16.376836
2006-04-28 07:33:01 51°13.933 2°52.943 11.0109 3.555593 31.361798 16.545383
2006-04-28 07:33:07 51°13.921 2°52.909 11.0068 3.549062 31.296468 16.646512
2006-04-28 07:33:11 51°13.913 2°52.887 11.0117 3.549062 31.296468 16.646512
2006-04-28 07:33:17 51°13.9 2°52.853 11.0136 3.559701 31.397956 16.71393
2006-04-28 07:33:22 51°13.89 2°52.825 11.0093 3.561913 31.414853 16.71393
2006-04-28 07:33:27 51°13.88 2°52.797 11.0149 3.552117 31.315505 16.646512
2006-04-28 07:33:31 51°13.872 2°52.774 11.0089 3.563282 31.423493 16.511674
2006-04-28 07:33:38 51°13.859 2°52.734 11.0154 3.562124 31.411461 16.410546
2006-04-28 07:33:42 51°13.852 2°52.711 11.0226 3.563177 31.421779 16.241999
2006-04-28 07:33:47 51°13.842 2°52.682 11.0217 3.563177 31.421779 16.241999
2006-04-28 07:33:52 51°13.833 2°52.653 11.0189 3.563493 31.424875 16.073452
2006-04-28 07:33:57 51°13.823 2°52.625 11.0214 3.563493 31.424192 15.938614
2006-04-28 07:34:01 51°13.815 2°52.602 11.023 3.561808 31.407684 15.837486
2006-04-28 07:34:07 51°13.802 2°52.569 11.0301 3.559385 31.383956 15.702648
2006-04-28 07:34:12 51°13.79 2°52.543 11.0374 3.55791 31.368152 15.60152
2006-04-28 07:34:17 51°13.778 2°52.517 11.0398 3.55791 31.368152 15.60152
2006-04-28 07:34:21 51°13.768 2°52.496 11.0491 3.542426 31.213865 15.432973
2006-04-28 07:34:28 51°13.75 2°52.461 11.0509 3.564862 31.433512 15.298136
2006-04-28 07:34:32 51°13.74 2°52.44 11.0538 3.577397 31.556323 15.163298
2006-04-28 07:34:37 51°13.726 2°52.416 11.0567 3.571183 31.494058 15.06217
2006-04-28 07:34:42 51°13.713 2°52.391 11.0571 3.578556 31.563568 15.06217
2006-04-28 07:34:45 51°13.705 2°52.376 11.0646 3.578556 31.563568 15.06217
2006-04-28 07:34:51 51°13.69 2°52.345 11.0681 3.580663 31.579416 14.927332
2006-04-28 07:34:57 51°13.675 2°52.314 11.0717 3.570972 31.479696 14.927332
2006-04-28 07:35:02 51°13.664 2°52.287 11.0796 3.582664 31.588062 14.826204
2006-04-28 07:35:07 51°13.653 2°52.259 11.0812 3.563387 31.396583 14.826204
2006-04-28 07:35:12 51°13.643 2°52.231 11.0862 3.563387 31.396583 14.826204
2006-04-28 07:35:18 51°13.631 2°52.197 11.0909 3.589722 31.650345 14.725076
2006-04-28 07:35:22 51°13.623 2°52.174 11.0943 3.580557 31.557158 14.691366
2006-04-28 07:35:27 51°13.614 2°52.144 11.0989 3.598676 31.7312 14.691366
2006-04-28 07:35:32 51°13.605 2°52.116 11.1014 3.60015 31.739458 14.590238
2006-04-28 07:35:37 51°13.595 2°52.086 11.1064 3.604574 31.777987 14.522819
2006-04-28 07:35:41 51°13.588 2°52.063 11.1071 3.600993 31.738771 14.387982
2006-04-28 07:35:47 51°13.577 2°52.028 11.1046 3.600993 31.738771 14.387982
2006-04-28 07:35:49 51°13.573 2°52.016 11.1094 3.61258 31.848157 14.320563
2006-04-28 07:35:57 51°13.558 2°51.97 11.1093 3.614371 31.862253 14.219435
2006-04-28 07:36:01 51°13.55 2°51.947 11.1117 3.617215 31.885978 14.219435
2006-04-28 07:36:06 51°13.54 2°51.918 11.113 3.617531 31.88493 14.185725
2006-04-28 07:36:11 51°13.53 2°51.89 11.1142 3.621534 31.921385 14.253144
2006-04-28 07:36:17 51°13.518 2°51.856 11.1166 3.621534 31.921385 14.253144
2006-04-28 07:36:22 51°13.508 2°51.827 11.1159 3.622166 31.925504 14.286853
2006-04-28 07:36:27 51°13.498 2°51.798 11.1111 3.620165 31.903823 14.286853
2006-04-28 07:36:32 51°13.488 2°51.769 11.1129 3.616794 31.870113 14.354272
2006-04-28 07:36:37 51°13.479 2°51.739 11.1139 3.625537 31.954381 14.4554
2006-04-28 07:36:41 51°13.472 2°51.716 11.1131 3.625537 31.954381 14.4554
2006-04-28 07:36:47 51°13.46 2°51.679 11.1189 3.626591 31.961934 14.48911
2006-04-28 07:36:52 51°13.451 2°51.651 11.1241 3.626591 31.960551 14.48911
2006-04-28 07:36:57 51°13.442 2°51.621 11.1193 3.627539 31.967763 14.48911
2006-04-28 07:37:02 51°13.433 2°51.592 11.1244 3.628171 31.973955 14.4554
2006-04-28 07:37:07 51°13.424 2°51.562 11.1242 3.627855 31.972243 14.4554
2006-04-28 07:37:12 51°13.415 2°51.533 11.1295 3.627539 31.969147 14.421691
2006-04-28 07:37:17 51°13.405 2°51.503 11.1244 3.627539 31.969147 14.421691
2006-04-28 07:37:22 51°13.396 2°51.474 11.1298 3.629224 31.984275 14.354272
2006-04-28 07:37:27 51°13.387 2°51.445 11.1322 3.628487 31.974974 14.253144
2006-04-28 07:37:32 51°13.377 2°51.415 11.1342 3.630488 31.992505 14.185725
2006-04-28 07:37:37 51°13.367 2°51.387 11.1357 3.62954 31.981833 14.084597
2006-04-28 07:37:42 51°13.358 2°51.357 11.1403 3.630594 31.990075 14.017178
2006-04-28 07:37:47 51°13.349 2°51.328 11.1434 3.630594 31.990075 14.017178
2006-04-28 07:37:52 51°13.339 2°51.298 11.1471 3.631436 31.997638 13.882341
2006-04-28 07:37:57 51°13.329 2°51.269 11.1447 3.633649 32.018616 13.814922
2006-04-28 07:38:02 51°13.32 2°51.24 11.1443 3.635124 32.030984 13.680084
2006-04-28 07:38:06 51°13.312 2°51.217 11.1454 3.633017 32.008268 13.578956
2006-04-28 07:38:12 51°13.3 2°51.182 11.1416 3.638073 32.055719 13.511537
2006-04-28 07:38:17 51°13.291 2°51.153 11.1378 3.638073 32.055719 13.511537
2006-04-28 07:38:22 51°13.281 2°51.123 11.1385 3.633333 32.005823 13.477828
2006-04-28 07:38:26 51°13.274 2°51.1 11.1387 3.638916 32.058426 13.444118
2006-04-28 07:38:32 51°13.262 2°51.065 11.1406 3.640391 32.071485 13.3767
2006-04-28 07:38:37 51°13.252 2°51.036 11.1317 3.642919 32.096251 13.34299
2006-04-28 07:38:41 51°13.244 2°51.013 11.1329 3.624167 31.912636 13.34299
2006-04-28 07:38:47 51°13.231 2°50.979 11.1279 3.624167 31.912636 13.34299
2006-04-28 07:38:52 51°13.22 2°50.951 11.1291 3.642392 32.091091 13.309281
2006-04-28 07:38:56 51°13.211 2°50.929 11.126 3.64018 32.070809 13.34299
2006-04-28 07:39:02 51°13.197 2°50.896 11.1268 3.639864 32.068407 13.275571
2006-04-28 07:39:07 51°13.186 2°50.868 11.1292 3.639443 32.065666 13.309281
2006-04-28 07:39:12 51°13.174 2°50.841 11.13 3.639443 32.068442 13.34299
2006-04-28 07:39:17 51°13.163 2°50.813 11.1329 3.639443 32.068442 13.34299
2006-04-28 07:39:22 51°13.152 2°50.785 11.1301 3.634913 32.025455 13.34299
2006-04-28 07:39:27 51°13.142 2°50.756 11.1322 3.637968 32.057462 13.309281
2006-04-28 07:39:32 51°13.131 2°50.728 11.1285 3.633543 32.016198 13.309281
2006-04-28 07:39:37 51°13.122 2°50.699 11.1303 3.635124 32.032371 13.241862
2006-04-28 07:39:42 51°13.112 2°50.67 11.1303 3.632069 32.001751 13.241862
2006-04-28 07:39:47 51°13.102 2°50.641 11.1287 3.632069 32.001751 13.241862
2006-04-28 07:39:52 51°13.092 2°50.613 11.1347 3.637546 32.054721 13.208153
2006-04-28 07:39:57 51°13.083 2°50.583 11.1309 3.636072 32.038886 13.208153
2006-04-28 07:40:02 51°13.073 2°50.554 11.1361 3.63544 32.032001 13.208153
2006-04-28 07:40:07 51°13.063 2°50.525 11.1376 3.630488 31.983505 13.208153
2006-04-28 07:40:12 51°13.053 2°50.497 11.1349 3.630488 31.983505 13.208153
2006-04-28 07:40:17 51°13.043 2°50.469 11.1367 3.634702 32.024777 13.140734
2006-04-28 07:40:22 51°13.033 2°50.44 11.1382 3.629646 31.975252 13.140734
2006-04-28 07:40:27 51°13.023 2°50.411 11.1386 3.63702 32.04748 13.140734
2006-04-28 07:40:32 51°13.013 2°50.382 11.1399 3.631647 31.995547 13.073315
2006-04-28 07:40:37 51°13.003 2°50.353 11.1432 3.638284 32.059171 13.039606
2006-04-28 07:40:42 51°12.993 2°50.324 11.1411 3.63565 32.031292 13.005896
2006-04-28 07:40:47 51°12.984 2°50.294 11.1426 3.63565 32.031292 13.005896
2006-04-28 07:40:52 51°12.974 2°50.266 11.1421 3.641023 32.083922 12.972187
2006-04-28 07:40:57 51°12.965 2°50.237 11.1417 3.641234 32.085987 12.904768
2006-04-28 07:41:02 51°12.955 2°50.208 11.1382 3.632279 31.996891 12.871059
2006-04-28 07:41:07 51°12.945 2°50.179 11.1394 3.641339 32.083548 12.837349
2006-04-28 07:41:12 51°12.935 2°50.151 11.1393 3.637968 32.049833 12.80364
2006-04-28 07:41:17 51°12.924 2°50.123 11.1383 3.637968 32.049833 12.80364
2006-04-28 07:41:22 51°12.913 2°50.096 11.1396 3.6386 32.055331 12.80364
2006-04-28 07:41:27 51°12.902 2°50.068 11.1351 3.641233 32.07974 12.80364
2006-04-28 07:41:32 51°12.891 2°50.042 11.1338 3.636282 32.031939 12.80364
2006-04-28 07:41:37 51°12.88 2°50.014 11.1349 3.629329 31.965932 12.871059
2006-04-28 07:41:42 51°12.869 2°49.986 11.1346 3.64018 32.07289 12.871059
2006-04-28 07:41:47 51°12.859 2°49.958 11.1352 3.64018 32.07289 12.871059
2006-04-28 07:41:52 51°12.848 2°49.93 11.13 3.633122 32.003759 12.871059
2006-04-28 07:41:57 51°12.839 2°49.902 11.1281 3.634491 32.017171 12.904768
2006-04-28 07:42:02 51°12.829 2°49.873 11.1272 3.631858 31.992764 12.904768
2006-04-28 07:42:07 51°12.82 2°49.844 11.1317 3.638916 32.062588 12.972187
2006-04-28 07:42:12 51°12.81 2°49.816 11.1294 3.635229 32.026472 13.073315
2006-04-28 07:42:17 51°12.8 2°49.787 11.1299 3.635229 32.026472 13.073315
2006-04-28 07:42:22 51°12.79 2°49.759 11.1274 3.634491 32.019942 13.140734
2006-04-28 07:42:27 51°12.779 2°49.73 11.1281 3.635123 32.026826 13.208153
2006-04-28 07:42:32 51°12.769 2°49.703 11.1327 3.635861 32.034742 13.309281
2006-04-28 07:42:37 51°12.758 2°49.675 11.129 3.635756 32.035096 13.3767
2006-04-28 07:42:42 51°12.747 2°49.648 11.1271 3.63544 32.033387 13.477828
2006-04-28 07:42:47 51°12.735 2°49.62 11.1288 3.63544 32.033387 13.477828
2006-04-28 07:42:52 51°12.724 2°49.592 11.1274 3.631331 31.993144 13.612665
2006-04-28 07:42:57 51°12.714 2°49.565 11.13 3.633017 32.011038 13.612665
2006-04-28 07:43:02 51°12.703 2°49.536 11.1305 3.631858 32.00038 13.646375
2006-04-28 07:43:07 51°12.693 2°49.508 11.1306 3.628803 31.969766 13.680084
2006-04-28 07:43:12 51°12.684 2°49.479 11.1351 3.632595 32.006911 13.713794
2006-04-28 07:43:17 51°12.674 2°49.451 11.1375 3.632595 32.006911 13.713794
2006-04-28 07:43:22 51°12.664 2°49.422 11.1421 3.625537 31.938476 13.747503
2006-04-28 07:43:27 51°12.655 2°49.393 11.144 3.634281 32.024808 13.781212
2006-04-28 07:43:32 51°12.645 2°49.364 11.1436 3.631647 31.997624 13.814922
2006-04-28 07:43:37 51°12.635 2°49.336 11.1447 3.633227 32.012409 13.882341
2006-04-28 07:43:42 51°12.626 2°49.307 11.1456 3.633227 32.012409 13.882341
2006-04-28 07:43:47 51°12.615 2°49.278 11.1479 3.636177 32.041304 13.983469
2006-04-28 07:43:52 51°12.606 2°49.25 11.1454 3.639127 32.068815 14.050888
2006-04-28 07:43:57 51°12.595 2°49.221 11.1493 3.637968 32.054687 14.219435
2006-04-28 07:44:02 51°12.585 2°49.193 11.1486 3.633859 32.011674 14.320563
2006-04-28 07:44:07 51°12.575 2°49.164 11.149 3.642182 32.091804 14.387982
2006-04-28 07:44:12 51°12.565 2°49.135 11.1462 3.635123 32.019898 14.4554
2006-04-28 07:44:17 51°12.555 2°49.106 11.1498 3.635123 32.019898 14.4554
2006-04-28 07:44:22 51°12.545 2°49.077 11.1523 3.644921 32.11447 14.556529
2006-04-28 07:44:27 51°12.534 2°49.048 11.1526 3.644605 32.111374 14.691366
2006-04-28 07:44:32 51°12.525 2°49.019 11.1504 3.640917 32.074563 14.623947
2006-04-28 07:44:37 51°12.515 2°48.989 11.1546 3.642498 32.089346 14.590238
2006-04-28 07:44:42 51°12.505 2°48.96 11.1518 3.633122 31.996837 14.48911
2006-04-28 07:44:47 51°12.495 2°48.93 11.1496 3.633122 31.996837 14.48911
2006-04-28 07:44:52 51°12.486 2°48.9 11.1507 3.64334 32.097601 14.421691
2006-04-28 07:44:57 51°12.476 2°48.871 11.1477 3.638705 32.050816 14.4554
2006-04-28 07:45:02 51°12.465 2°48.842 11.1487 3.631963 31.983417 14.522819
2006-04-28 07:45:06 51°12.458 2°48.819 11.1442 3.639337 32.054926 14.522819
2006-04-28 07:45:12 51°12.446 2°48.783 11.1455 3.636914 32.032586 14.522819
2006-04-28 07:45:17 51°12.436 2°48.753 11.146 3.636914 32.032586 14.522819
2006-04-28 07:45:22 51°12.426 2°48.723 11.1458 3.636598 32.028798 14.4554
2006-04-28 07:45:26 51°12.418 2°48.7 11.1479 3.639021 32.053217 14.320563
2006-04-28 07:45:32 51°12.406 2°48.664 11.1416 3.634807 32.012648 14.253144
2006-04-28 07:45:37 51°12.396 2°48.634 11.1397 3.623114 31.898875 14.118306
2006-04-28 07:45:42 51°12.386 2°48.605 11.1389 3.631015 31.977593 14.050888
2006-04-28 07:45:47 51°12.375 2°48.575 11.1378 3.631015 31.977593 14.050888
2006-04-28 07:45:52 51°12.365 2°48.546 11.1392 3.634175 32.009229 14.017178
2006-04-28 07:45:56 51°12.356 2°48.522 11.1372 3.634175 32.009921 14.017178
2006-04-28 07:46:02 51°12.344 2°48.487 11.1392 3.632068 31.989291 14.084597
2006-04-28 07:46:07 51°12.333 2°48.457 11.1393 3.631226 31.981731 14.152016
2006-04-28 07:46:12 51°12.323 2°48.428 11.1417 3.628381 31.955958 14.219435
2006-04-28 07:46:16 51°12.314 2°48.404 11.1414 3.628381 31.955958 14.219435
2006-04-28 07:46:22 51°12.302 2°48.369 11.1413 3.621955 31.893743 14.152016
2006-04-28 07:46:26 51°12.294 2°48.345 11.1421 3.620059 31.876563 14.084597
2006-04-28 07:46:32 51°12.282 2°48.309 11.1396 3.624062 31.915747 13.91605
2006-04-28 07:46:36 51°12.274 2°48.285 11.1416 3.632806 32.002049 13.814922
2006-04-28 07:46:42 51°12.262 2°48.25 11.1446 3.631226 31.986575 13.781212
2006-04-28 07:46:46 51°12.255 2°48.227 11.1423 3.631226 31.986575 13.781212
2006-04-28 07:46:51 51°12.245 2°48.197 11.1467 3.61574 31.832917 13.747503
2006-04-28 07:46:57 51°12.233 2°48.162 11.1495 3.623114 31.905085 13.882341
2006-04-28 07:47:02 51°12.223 2°48.132 11.1505 3.630172 31.974875 14.152016
2006-04-28 07:47:07 51°12.213 2°48.102 11.1497 3.633649 32.008918 14.522819
2006-04-28 07:47:12 51°12.204 2°48.073 11.1538 3.636177 32.032986 14.758785
2006-04-28 07:47:17 51°12.194 2°48.044 11.1537 3.636177 32.032986 14.758785
2006-04-28 07:47:21 51°12.186 2°48.021 11.1523 3.632068 31.992751 15.06217
2006-04-28 07:47:27 51°12.173 2°47.985 11.155 3.639548 32.064617 15.163298
2006-04-28 07:47:32 51°12.163 2°47.957 11.1577 3.640707 32.073887 15.264426
2006-04-28 07:47:37 51°12.152 2°47.928 11.1582 3.639548 32.060456 15.298136
2006-04-28 07:47:42 51°12.142 2°47.9 11.1612 3.641023 32.074901 15.331845
2006-04-28 07:47:47 51°12.131 2°47.871 11.1635 3.641023 32.074901 15.331845
2006-04-28 07:47:52 51°12.12 2°47.843 11.1677 3.634597 32.009893 15.230717
2006-04-28 07:47:57 51°12.11 2°47.814 11.1684 3.650609 32.165335 15.129589
2006-04-28 07:48:01 51°12.102 2°47.791 11.17 3.655034 32.207992 15.02846
2006-04-28 07:48:07 51°12.09 2°47.756 11.174 3.65693 32.225181 14.893623
2006-04-28 07:48:12 51°12.08 2°47.727 11.1759 3.656825 32.222755 14.691366
2006-04-28 07:48:17 51°12.071 2°47.698 11.1779 3.656825 32.222755 14.691366
2006-04-28 07:48:22 51°12.061 2°47.669 11.1816 3.6583 32.235116 14.522819
2006-04-28 07:48:27 51°12.051 2°47.639 11.1847 3.662408 32.273285 14.286853
2006-04-28 07:48:32 51°12.041 2°47.609 11.1856 3.670204 32.3462 14.118306
2006-04-28 07:48:37 51°12.031 2°47.58 11.1888 3.660933 32.253253 13.983469
2006-04-28 07:48:41 51°12.023 2°47.557 11.1874 3.677895 32.417392 13.848631
2006-04-28 07:48:47 51°12.011 2°47.523 11.188 3.677895 32.417392 13.848631
2006-04-28 07:48:52 51°12.001 2°47.495 11.1883 3.681477 32.450408 13.747503
2006-04-28 07:48:57 51°11.992 2°47.465 11.1933 3.685585 32.486484 13.680084
2006-04-28 07:49:02 51°11.982 2°47.436 11.1958 3.687798 32.506773 13.578956
2006-04-28 07:49:07 51°11.973 2°47.403 11.1971 3.684848 32.475041 13.511537
2006-04-28 07:49:12 51°11.964 2°47.373 11.1982 3.686428 32.487726 13.444118
2006-04-28 07:49:17 51°11.955 2°47.344 11.1996 3.686428 32.487726 13.444118
2006-04-28 07:49:21 51°11.948 2°47.32 11.2008 3.685901 32.482562 13.444118
2006-04-28 07:49:27 51°11.937 2°47.283 11.2036 3.692328 32.544166 13.477828
2006-04-28 07:49:32 51°11.928 2°47.255 11.1993 3.692433 32.543089 13.410409
2006-04-28 07:49:37 51°11.918 2°47.225 11.202 3.694435 32.56131 13.444118
2006-04-28 07:49:42 51°11.909 2°47.195 11.2033 3.692117 32.537178 13.477828
2006-04-28 07:49:47 51°11.899 2°47.165 11.2056 3.692117 32.537178 13.477828
2006-04-28 07:49:52 51°11.889 2°47.135 11.2087 3.694961 32.562254 13.477828
2006-04-28 07:49:57 51°11.879 2°47.105 11.2112 3.695067 32.562584 13.477828
2006-04-28 07:50:01 51°11.871 2°47.082 11.2085 3.691696 32.528127 13.511537
2006-04-28 07:50:07 51°11.859 2°47.046 11.21 3.696963 32.579065 13.511537
2006-04-28 07:50:12 51°11.85 2°47.016 11.2104 3.688956 32.499874 13.511537
2006-04-28 07:50:17 51°11.841 2°46.986 11.2096 3.688956 32.499874 13.511537
2006-04-28 07:50:22 51°11.832 2°46.957 11.2101 3.697279 32.580053 13.545247
2006-04-28 07:50:27 51°11.823 2°46.926 11.2134 3.70044 32.609633 13.545247
2006-04-28 07:50:32 51°11.814 2°46.894 11.2123 3.696015 32.564142 13.545247
2006-04-28 07:50:37 51°11.805 2°46.862 11.2169 3.682635 32.431625 13.545247
2006-04-28 07:50:41 51°11.797 2°46.838 11.2191 3.688745 32.490791 13.511537
2006-04-28 07:50:47 51°11.786 2°46.802 11.222 3.688745 32.490791 13.511537
2006-04-28 07:50:52 51°11.778 2°46.771 11.2227 3.699702 32.597473 13.545247
2006-04-28 07:50:57 51°11.769 2°46.741 11.2224 3.690115 32.502807 13.477828
2006-04-28 07:51:02 51°11.76 2°46.712 11.2251 3.701915 32.617754 13.578956
2006-04-28 07:51:07 51°11.751 2°46.682 11.2247 3.69001 32.498968 13.511537
2006-04-28 07:51:12 51°11.742 2°46.652 11.2286 3.701493 32.610102 13.477828
2006-04-28 07:51:17 51°11.733 2°46.622 11.2276 3.701493 32.610102 13.477828
2006-04-28 07:51:21 51°11.725 2°46.598 11.2301 3.703706 32.630381 13.477828
2006-04-28 07:51:27 51°11.714 2°46.561 11.234 3.704548 32.636529 13.545247
2006-04-28 07:51:32 51°11.705 2°46.532 11.2283 3.708763 32.676432 13.511537
2006-04-28 07:51:37 51°11.695 2°46.503 11.2308 3.701388 32.603437 13.545247
2006-04-28 07:51:42 51°11.686 2°46.473 11.2331 3.706656 32.652955 13.545247
2006-04-28 07:51:47 51°11.676 2°46.443 11.2318 3.706656 32.652955 13.545247
2006-04-28 07:51:52 51°11.667 2°46.412 11.234 3.710659 32.691495 13.612665
2006-04-28 07:51:57 51°11.658 2°46.381 11.2361 3.71382 32.721777 13.646375
2006-04-28 07:52:01 51°11.65 2°46.357 11.2368 3.710027 32.681771 13.612665
2006-04-28 07:52:07 51°11.639 2°46.32 11.2359 3.70044 32.587813 13.612665
2006-04-28 07:52:12 51°11.63 2°46.29 11.2361 3.710764 32.689 13.646375
2006-04-28 07:52:17 51°11.621 2°46.259 11.2382 3.710764 32.689 13.646375
2006-04-28 07:52:22 51°11.612 2°46.229 11.2396 3.713398 32.713408 13.646375
2006-04-28 07:52:27 51°11.602 2°46.198 11.2401 3.714768 32.726129 13.612665
2006-04-28 07:52:32 51°11.593 2°46.169 11.2399 3.715189 32.728848 13.646375
2006-04-28 07:52:37 51°11.583 2°46.139 11.2402 3.712977 32.705747 13.680084
2006-04-28 07:52:41 51°11.576 2°46.115 11.2419 3.712977 32.705747 13.680084
2006-04-28 07:52:47 51°11.564 2°46.079 11.2423 3.71993 32.773916 13.713794
2006-04-28 07:52:52 51°11.555 2°46.05 11.244 3.718455 32.759454 13.781212
2006-04-28 07:52:57 51°11.546 2°46.02 11.2406 3.721195 32.78419 13.747503
2006-04-28 07:53:02 51°11.537 2°45.99 11.2413 3.719509 32.766955 13.814922
2006-04-28 07:53:07 51°11.529 2°45.96 11.2419 3.718034 32.752495 13.814922
2006-04-28 07:53:12 51°11.52 2°45.93 11.2467 3.721721 32.786525 13.882341
2006-04-28 07:53:17 51°11.511 2°45.9 11.2414 3.721721 32.786525 13.882341
2006-04-28 07:53:21 51°11.504 2°45.876 11.2447 3.722986 32.798213 13.848631
2006-04-28 07:53:27 51°11.494 2°45.84 11.2448 3.724671 32.814741 13.882341
2006-04-28 07:53:32 51°11.485 2°45.81 11.2462 3.724777 32.815066 13.882341
2006-04-28 07:53:37 51°11.476 2°45.781 11.2506 3.72583 32.826105 13.848631
2006-04-28 07:53:42 51°11.467 2°45.75 11.2467 3.717191 32.7407 13.882341
2006-04-28 07:53:47 51°11.458 2°45.72 11.248 3.717191 32.7407 13.882341
2006-04-28 07:53:52 51°11.45 2°45.691 11.2511 3.726357 32.829853 13.814922
2006-04-28 07:53:57 51°11.442 2°45.66 11.251 3.721511 32.782337 13.882341
2006-04-28 07:54:01 51°11.436 2°45.636 11.2496 3.71698 32.737928 13.848631
2006-04-28 07:54:07 51°11.428 2°45.598 11.2471 3.726357 32.829145 13.814922
2006-04-28 07:54:12 51°11.421 2°45.567 11.2497 3.724144 32.805329 13.781212
2006-04-28 07:54:17 51°11.414 2°45.536 11.2501 3.724144 32.805329 13.781212
2006-04-28 07:54:22 51°11.408 2°45.505 11.2515 3.718982 32.754723 13.747503
2006-04-28 07:54:27 51°11.401 2°45.473 11.2516 3.727411 32.835934 13.747503
2006-04-28 07:54:32 51°11.394 2°45.44 11.2498 3.722143 32.782168 13.713794
2006-04-28 07:54:37 51°11.386 2°45.406 11.255 3.723302 32.794236 13.680084
2006-04-28 07:54:41 51°11.381 2°45.383 11.2533 3.729412 32.854144 13.680084
2006-04-28 07:54:47 51°11.373 2°45.347 11.2525 3.729412 32.854144 13.680084
2006-04-28 07:54:52 51°11.367 2°45.317 11.2516 3.722669 32.788746 13.680084
2006-04-28 07:54:57 51°11.36 2°45.286 11.2523 3.729096 32.851045 13.646375
2006-04-28 07:55:02 51°11.353 2°45.256 11.2534 3.728991 32.848594 13.578956
2006-04-28 07:55:07 51°11.347 2°45.225 11.2556 3.734259 32.900249 13.578956
2006-04-28 07:55:12 51°11.34 2°45.193 11.2527 3.736998 32.926404 13.545247
2006-04-28 07:55:17 51°11.334 2°45.163 11.2512 3.736998 32.926404 13.545247
2006-04-28 07:55:21 51°11.329 2°45.138 11.2551 3.731309 32.871321 13.444118
2006-04-28 07:55:27 51°11.321 2°45.101 11.2567 3.733521 32.892307 13.410409
2006-04-28 07:55:32 51°11.314 2°45.07 11.2578 3.732362 32.880233 13.3767
2006-04-28 07:55:37 51°11.308 2°45.039 11.2552 3.733521 32.892307 13.309281
2006-04-28 07:55:42 51°11.301 2°45.007 11.2567 3.736366 32.920204 13.275571
2006-04-28 07:55:47 51°11.295 2°44.975 11.2557 3.736366 32.920204 13.275571
2006-04-28 07:55:52 51°11.289 2°44.944 11.256 3.740896 32.963929 13.241862
2006-04-28 07:55:57 51°11.282 2°44.912 11.2579 3.741213 32.967029 13.208153
2006-04-28 07:56:01 51°11.275 2°44.881 11.2582 3.741318 32.967352 13.208153
2006-04-28 07:56:07 51°11.266 2°44.843 11.2575 3.738262 32.936673 13.140734
2006-04-28 07:56:12 51°11.26 2°44.815 11.2544 3.742477 32.97872 13.140734
2006-04-28 07:56:17 51°11.253 2°44.786 11.2556 3.742477 32.97872 13.140734
2006-04-28 07:56:21 51°11.247 2°44.762 11.2553 3.738684 32.939385 13.107024
2006-04-28 07:56:27 51°11.239 2°44.725 11.2542 3.735523 32.909098 13.073315
2006-04-28 07:56:29 51°11.236 2°44.713 11.2551 3.732889 32.882562 13.039606
2006-04-28 07:56:37 51°11.222 2°44.655 11.2558 3.747534 33.025485 12.972187
2006-04-28 07:56:41 51°11.217 2°44.631 11.2535 3.750906 33.059278 13.005896
2006-04-28 07:56:46 51°11.21 2°44.601 11.2603 3.750906 33.059278 13.005896
2006-04-28 07:56:51 51°11.205 2°44.57 11.2536 3.735945 32.913231 12.972187
2006-04-28 07:56:57 51°11.197 2°44.532 11.2571 3.744479 32.997646 12.938477
2006-04-28 07:57:02 51°11.192 2°44.5 11.2536 3.753434 33.084805 12.904768
2006-04-28 07:57:05 51°11.189 2°44.48 11.2522 3.746797 33.019674 12.938477
2006-04-28 07:57:12 51°11.182 2°44.435 11.2522 3.736155 32.915297 12.904768
2006-04-28 07:57:17 51°11.177 2°44.403 11.2527 3.736155 32.915297 12.904768
2006-04-28 07:57:22 51°11.171 2°44.371 11.2533 3.749009 33.04067 12.871059
2006-04-28 07:57:26 51°11.167 2°44.345 11.2493 3.75217 33.070971 12.904768
2006-04-28 07:57:32 51°11.161 2°44.306 11.2512 3.746691 33.017928 12.871059
2006-04-28 07:57:37 51°11.155 2°44.274 11.2482 3.753961 33.089975 12.871059
2006-04-28 07:57:42 51°11.15 2°44.242 11.2503 3.754067 33.091723 12.871059
2006-04-28 07:57:46 51°11.146 2°44.216 11.2515 3.754067 33.091723 12.871059
2006-04-28 07:57:52 51°11.14 2°44.178 11.2461 3.744479 32.998358 12.837349
2006-04-28 07:57:57 51°11.135 2°44.145 11.246 3.758281 33.134518 12.837349
2006-04-28 07:58:02 51°11.13 2°44.112 11.2475 3.756385 33.116616 12.76993
2006-04-28 07:58:06 51°11.125 2°44.087 11.2467 3.755331 33.106988 12.736221
2006-04-28 07:58:12 51°11.118 2°44.048 11.2485 3.755331 33.106988 12.736221
2006-04-28 07:58:17 51°11.112 2°44.016 11.2467 3.755015 33.105314 12.76993
2006-04-28 07:58:22 51°11.106 2°43.984 11.247 3.741213 32.969874 12.736221
2006-04-28 07:58:26 51°11.102 2°43.958 11.2469 3.751749 33.073256 12.668802
2006-04-28 07:58:31 51°11.095 2°43.926 11.2456 3.752381 33.080888 12.635093
2006-04-28 07:58:37 51°11.089 2°43.887 11.2462 3.745006 33.009223 12.635093
2006-04-28 07:58:42 51°11.083 2°43.855 11.2451 3.760178 33.158143 12.601383
2006-04-28 07:58:46 51°11.079 2°43.829 11.2444 3.760178 33.158143 12.601383
2006-04-28 07:58:52 51°11.072 2°43.791 11.2487 3.761653 33.172626 12.635093
2006-04-28 07:58:57 51°11.067 2°43.758 11.2464 3.755015 33.107457 12.567674
2006-04-28 07:59:02 51°11.061 2°43.726 11.2445 3.751538 33.073329 12.567674
2006-04-28 07:59:06 51°11.057 2°43.7 11.2473 3.758492 33.141591 12.567674
2006-04-28 07:59:12 51°11.05 2°43.662 11.2456 3.744479 33.004766 12.533965
2006-04-28 07:59:17 51°11.044 2°43.629 11.2457 3.744479 33.004766 12.533965
2006-04-28 07:59:22 51°11.039 2°43.597 11.2435 3.761758 33.175093 12.533965
2006-04-28 07:59:26 51°11.035 2°43.571 11.2446 3.759229 33.150263 12.500255
2006-04-28 07:59:31 51°11.03 2°43.538 11.2434 3.756595 33.122972 12.500255
2006-04-28 07:59:37 51°11.024 2°43.5 11.2421 3.74785 33.03785 12.466546
2006-04-28 07:59:42 51°11.018 2°43.468 11.2452 3.74785 33.03785 12.466546
2006-04-28 07:59:46 51°11.014 2°43.442 11.2427 3.761758 33.175093 12.500255
2006-04-28 07:59:52 51°11.007 2°43.403 11.2427 3.762706 33.184404 12.432836
2006-04-28 07:59:57 51°11.002 2°43.371 11.2433 3.764076 33.197139 12.466546
2006-04-28 08:00:02 51°10.996 2°43.338 11.2447 3.767237 33.2289 12.432836
2006-04-28 08:00:06 51°10.992 2°43.313 11.2452 3.766078 33.218233 12.399127
2006-04-28 08:00:12 51°10.985 2°43.274 11.243 3.766289 33.220303 12.432836
2006-04-28 08:00:17 51°10.979 2°43.241 11.2422 3.766289 33.220303 12.432836
2006-04-28 08:00:22 51°10.974 2°43.21 11.2446 3.769133 33.248963 12.399127
2006-04-28 08:00:26 51°10.969 2°43.184 11.2471 3.771135 33.270065 12.399127
2006-04-28 08:00:32 51°10.963 2°43.145 11.2432 3.769028 33.249363 12.365418
2006-04-28 08:00:37 51°10.958 2°43.113 11.2437 3.768396 33.241718 12.399127
2006-04-28 08:00:41 51°10.954 2°43.087 11.2455 3.767237 33.230334 12.365418
2006-04-28 08:00:46 51°10.949 2°43.054 11.2438 3.767237 33.230334 12.365418
2006-04-28 08:00:52 51°10.943 2°43.016 11.2455 3.768923 33.247611 12.331708
2006-04-28 08:00:56 51°10.938 2°42.99 11.2441 3.773348 33.291086 12.365418
2006-04-28 08:01:02 51°10.931 2°42.952 11.2468 3.774612 33.302072 12.365418
2006-04-28 08:01:05 51°10.927 2°42.933 11.2475 3.768396 33.240284 12.331708
2006-04-28 08:01:11 51°10.92 2°42.895 11.2498 3.775139 33.307248 12.331708
2006-04-28 08:01:17 51°10.913 2°42.857 11.2484 3.775139 33.307248 12.331708
2006-04-28 08:01:22 51°10.907 2°42.825 11.2481 3.774612 33.302072 12.331708
2006-04-28 08:01:26 51°10.903 2°42.799 11.2492 3.777141 33.326919 12.264289
2006-04-28 08:01:31 51°10.897 2°42.767 11.2485 3.764392 33.203109 12.331708
2006-04-28 08:01:37 51°10.891 2°42.729 11.251 3.778406 33.339343 12.331708
2006-04-28 08:01:42 51°10.886 2°42.696 11.2521 3.775771 33.312022 12.365418
2006-04-28 08:01:46 51°10.882 2°42.671 11.2537 3.775771 33.312022 12.365418
2006-04-28 08:01:52 51°10.876 2°42.632 11.2526 3.783463 33.385446 12.331708
2006-04-28 08:01:57 51°10.87 2°42.6 11.2491 3.785149 33.401295 12.331708
2006-04-28 08:02:02 51°10.864 2°42.568 11.2476 3.78262 33.377162 12.297999
2006-04-28 08:02:06 51°10.859 2°42.543 11.249 3.786413 33.414443 12.297999
2006-04-28 08:02:12 51°10.852 2°42.504 11.2513 3.790523 33.454115 12.297999
2006-04-28 08:02:17 51°10.846 2°42.472 11.249 3.790523 33.454115 12.297999
2006-04-28 08:02:22 51°10.839 2°42.441 11.2493 3.794526 33.492758 12.297999
2006-04-28 08:02:26 51°10.835 2°42.415 11.2492 3.775982 33.30978 12.297999
2006-04-28 08:02:31 51°10.829 2°42.383 11.2526 3.791049 33.457851 12.297999
2006-04-28 08:02:37 51°10.823 2°42.344 11.2497 3.787994 33.429257 12.264289
2006-04-28 08:02:42 51°10.818 2°42.312 11.2483 3.79695 33.518033 12.264289
2006-04-28 08:02:46 51°10.814 2°42.286 11.2475 3.79695 33.518033 12.264289
2006-04-28 08:02:52 51°10.808 2°42.248 11.2464 3.78125 33.362981 12.264289
2006-04-28 08:02:57 51°10.803 2°42.216 11.2453 3.791049 33.459295 12.23058
2006-04-28 08:03:02 51°10.798 2°42.185 11.246 3.802429 33.571195 12.196871
2006-04-28 08:03:06 51°10.794 2°42.159 11.2449 3.792208 33.469967 12.196871
2006-04-28 08:03:12 51°10.787 2°42.121 11.245 3.796107 33.509021 12.196871
2006-04-28 08:03:17 51°10.782 2°42.089 11.2438 3.796107 33.509021 12.196871
2006-04-28 08:03:22 51°10.776 2°42.057 11.2438 3.804115 33.588502 12.163161
2006-04-28 08:03:26 51°10.773 2°42.032 11.2455 3.80696 33.617214 12.23058
2006-04-28 08:03:32 51°10.766 2°41.994 11.2457 3.809278 33.641473 12.163161
2006-04-28 08:03:37 51°10.761 2°41.962 11.2455 3.803377 33.583421 12.196871
2006-04-28 08:03:41 51°10.757 2°41.936 11.244 3.803377 33.583421 12.196871
2006-04-28 08:03:46 51°10.751 2°41.905 11.2463 3.811069 33.659099 12.196871
2006-04-28 08:03:52 51°10.745 2°41.866 11.2447 3.810437 33.654331 12.196871
2006-04-28 08:03:56 51°10.741 2°41.841 11.2453 3.814757 33.696846 12.23058
2006-04-28 08:04:02 51°10.734 2°41.804 11.2467 3.808435 33.634631 12.23058
2006-04-28 08:04:05 51°10.731 2°41.784 11.245 3.822344 33.770799 12.23058
2006-04-28 08:04:11 51°10.725 2°41.746 11.2473 3.816338 33.711675 12.196871
2006-04-28 08:04:17 51°10.719 2°41.708 11.2472 3.816338 33.711675 12.196871
2006-04-28 08:04:22 51°10.714 2°41.676 11.2444 3.823714 33.785014 12.23058
2006-04-28 08:04:26 51°10.71 2°41.65 11.2449 3.82698 33.817179 12.23058
2006-04-28 08:04:31 51°10.705 2°41.618 11.2469 3.823397 33.781173 12.23058
2006-04-28 08:04:37 51°10.7 2°41.579 11.2442 3.823924 33.78636 12.23058
2006-04-28 08:04:42 51°10.694 2°41.548 11.2457 3.818024 33.728998 12.196871
2006-04-28 08:04:46 51°10.69 2°41.522 11.2447 3.818024 33.728998 12.196871
2006-04-28 08:04:52 51°10.684 2°41.484 11.2395 3.827402 33.819869 12.163161
2006-04-28 08:04:57 51°10.679 2°41.453 11.2391 3.830247 33.847886 12.196871
2006-04-28 08:05:02 51°10.675 2°41.421 11.2379 3.830141 33.846848 12.196871
2006-04-28 08:05:05 51°10.672 2°41.401 11.2375 3.832881 33.874562 12.23058
2006-04-28 08:05:12 51°10.665 2°41.357 11.2354 3.832354 33.871566 12.163161
2006-04-28 08:05:17 51°10.66 2°41.325 11.235 3.832354 33.871566 12.163161
2006-04-28 08:05:21 51°10.656 2°41.3 11.2369 3.832986 33.877062 12.163161
2006-04-28 08:05:27 51°10.65 2°41.262 11.2358 3.833829 33.886097 12.163161
2006-04-28 08:05:32 51°10.644 2°41.231 11.2337 3.826137 33.810337 12.23058
2006-04-28 08:05:37 51°10.639 2°41.199 11.235 3.82972 33.847081 12.196871
2006-04-28 08:05:42 51°10.633 2°41.168 11.2318 3.834356 33.894946 12.163161
2006-04-28 08:05:47 51°10.628 2°41.136 11.2333 3.834356 33.894946 12.163161
2006-04-28 08:05:52 51°10.623 2°41.105 11.2313 3.828561 33.839318 12.196871
2006-04-28 08:05:57 51°10.617 2°41.073 11.232 3.837412 33.927984 12.196871
2006-04-28 08:06:01 51°10.613 2°41.048 11.2306 3.832143 33.876804 12.163161
2006-04-28 08:06:06 51°10.609 2°41.016 11.227 3.836253 33.918027 12.196871
2006-04-28 08:06:11 51°10.603 2°40.984 11.2263 3.835621 33.911797 12.196871
2006-04-28 08:06:17 51°10.597 2°40.947 11.2252 3.835621 33.911797 12.196871
2006-04-28 08:06:22 51°10.591 2°40.916 11.2272 3.832249 33.878573 12.196871
2006-04-28 08:06:25 51°10.588 2°40.897 11.2242 3.835305 33.909414 12.163161
2006-04-28 08:06:32 51°10.58 2°40.853 11.2267 3.833092 33.889074 12.196871
2006-04-28 08:06:36 51°10.576 2°40.828 11.226 3.830036 33.858966 12.196871
2006-04-28 08:06:42 51°10.57 2°40.791 11.2237 3.830036 33.858966 12.196871
2006-04-28 08:06:46 51°10.566 2°40.765 11.2242 3.827191 33.833131 12.163161
2006-04-28 08:06:52 51°10.56 2°40.728 11.2191 3.836464 33.92743 12.23058
2006-04-28 08:06:57 51°10.554 2°40.696 11.2191 3.838255 33.94582 12.196871
2006-04-28 08:07:01 51°10.551 2°40.671 11.215 3.838782 33.95028 12.23058
2006-04-28 08:07:06 51°10.546 2°40.64 11.215 3.830774 33.871354 12.264289
2006-04-28 08:07:11 51°10.54 2°40.608 11.2134 3.830774 33.871354 12.264289
2006-04-28 08:07:17 51°10.533 2°40.572 11.2168 3.825927 33.824327 12.264289
2006-04-28 08:07:22 51°10.528 2°40.541 11.2124 3.831933 33.884239 12.23058
2006-04-28 08:07:26 51°10.524 2°40.515 11.2134 3.836358 33.930056 12.297999
2006-04-28 08:07:32 51°10.518 2°40.478 11.2143 3.835515 33.922479 12.297999
2006-04-28 08:07:35 51°10.515 2°40.459 11.2118 3.846053 34.029312 12.297999
2006-04-28 08:07:42 51°10.507 2°40.417 11.2114 3.849952 34.068503 12.365418
2006-04-28 08:07:47 51°10.502 2°40.385 11.2054 3.849952 34.068503 12.365418
2006-04-28 08:07:52 51°10.496 2°40.354 11.204 3.841416 33.986527 12.365418
2006-04-28 08:07:57 51°10.492 2°40.323 11.2046 3.84679 34.040264 12.399127
2006-04-28 08:08:02 51°10.487 2°40.29 11.2075 3.843208 34.005662 12.399127
2006-04-28 08:08:06 51°10.482 2°40.262 11.2069 3.853007 34.102333 12.399127
2006-04-28 08:08:11 51°10.477 2°40.23 11.2016 3.850689 34.080934 12.432836
2006-04-28 08:08:17 51°10.471 2°40.193 11.1966 3.850689 34.080934 12.432836
2006-04-28 08:08:22 51°10.467 2°40.162 11.1978 3.844472 34.021074 12.432836
2006-04-28 08:08:27 51°10.462 2°40.131 11.1995 3.84384 34.017043 12.432836
2006-04-28 08:08:31 51°10.458 2°40.105 11.2004 3.845842 34.038265 12.432836
2006-04-28 08:08:37 51°10.452 2°40.068 11.1985 3.848687 34.066335 12.500255
2006-04-28 08:08:41 51°10.448 2°40.042 11.1974 3.844999 34.030684 12.500255
2006-04-28 08:08:48 51°10.442 2°39.998 11.1943 3.844999 34.030684 12.500255
2006-04-28 08:08:52 51°10.437 2°39.973 11.194 3.836675 33.950041 12.500255
2006-04-28 08:08:57 51°10.433 2°39.941 11.1896 3.852586 34.109231 12.500255
2006-04-28 08:09:02 51°10.427 2°39.909 11.187 3.845632 34.042072 12.500255
2006-04-28 08:09:07 51°10.422 2°39.878 11.1885 3.848898 34.07357 12.500255
2006-04-28 08:09:12 51°10.417 2°39.847 11.1849 3.850689 34.091986 12.466546
2006-04-28 08:09:17 51°10.412 2°39.816 11.1861 3.850689 34.091986 12.466546
2006-04-28 08:09:22 51°10.407 2°39.784 11.1822 3.850163 34.08826 12.466546
2006-04-28 08:09:27 51°10.402 2°39.753 11.1776 3.844894 34.038473 12.432836
2006-04-28 08:09:32 51°10.397 2°39.722 11.1808 3.856169 34.15124 12.432836
2006-04-28 08:09:37 51°10.392 2°39.69 11.1751 3.854483 34.137547 12.432836
2006-04-28 08:09:42 51°10.387 2°39.659 11.1721 3.845842 34.052986 12.466546
2006-04-28 08:09:46 51°10.383 2°39.634 11.1718 3.845842 34.052986 12.466546
2006-04-28 08:09:51 51°10.378 2°39.603 11.1682 3.857644 34.170239 12.466546
2006-04-28 08:09:57 51°10.372 2°39.565 11.1652 3.85501 34.146441 12.432836
2006-04-28 08:10:01 51°10.368 2°39.54 11.1599 3.838888 33.990234 12.399127
2006-04-28 08:10:07 51°10.362 2°39.502 11.1592 3.855326 34.153256 12.432836
2006-04-28 08:10:12 51°10.357 2°39.471 11.1631 3.854483 34.148624 12.399127
2006-04-28 08:10:17 51°10.352 2°39.439 11.1555 3.854483 34.148624 12.399127
2006-04-28 08:10:21 51°10.347 2°39.414 11.1507 3.857434 34.179246 12.432836
2006-04-28 08:10:27 51°10.341 2°39.376 11.1456 3.859752 34.205107 12.365418
2006-04-28 08:10:32 51°10.336 2°39.345 11.1464 3.858909 34.200479 12.331708
2006-04-28 08:10:37 51°10.332 2°39.313 11.1471 3.858066 34.192889 12.297999
2006-04-28 08:10:42 51°10.327 2°39.281 11.1369 3.855748 34.173681 12.297999
2006-04-28 08:10:47 51°10.323 2°39.249 11.1318 3.855748 34.173681 12.297999
2006-04-28 08:10:52 51°10.318 2°39.218 11.1266 3.859647 34.21295 12.264289
2006-04-28 08:10:57 51°10.312 2°39.186 11.1241 3.84521 34.07401 12.264289
2006-04-28 08:11:01 51°10.308 2°39.161 11.1193 3.85638 34.189548 12.264289
2006-04-28 08:11:06 51°10.303 2°39.13 11.119 3.859015 34.219292 12.264289
2006-04-28 08:11:11 51°10.298 2°39.098 11.1172 3.85638 34.196211 12.264289
2006-04-28 08:11:17 51°10.291 2°39.061 11.1163 3.85638 34.196211 12.264289
2006-04-28 08:11:21 51°10.287 2°39.036 11.1092 3.858277 34.218668 12.23058
2006-04-28 08:11:25 51°10.282 2°39.01 11.1096 3.84637 34.10613 12.264289
2006-04-28 08:11:32 51°10.275 2°38.966 11.1098 3.852587 34.172772 12.264289
2006-04-28 08:11:37 51°10.27 2°38.935 11.1042 3.853009 34.180642 12.264289
2006-04-28 08:11:42 51°10.265 2°38.903 11.0998 3.860279 34.257014 12.23058
2006-04-28 08:11:47 51°10.26 2°38.871 11.1047 3.860279 34.257014 12.23058
2006-04-28 08:11:52 51°10.255 2°38.84 11.095 3.861333 34.268926 12.23058
2006-04-28 08:11:58 51°10.249 2°38.802 11.0936 3.858594 34.244044 12.163161
2006-04-28 08:12:02 51°10.245 2°38.777 11.0945 3.861228 34.273825 12.129452
2006-04-28 08:12:07 51°10.24 2°38.745 11.0856 3.855222 34.215873 12.129452
2006-04-28 08:12:12 51°10.235 2°38.713 11.0843 3.866391 34.329397 12.095742
2006-04-28 08:12:18 51°10.229 2°38.676 11.0791 3.866391 34.329397 12.095742
2006-04-28 08:12:22 51°10.224 2°38.651 11.0773 3.864916 34.318512 12.062033
2006-04-28 08:12:27 51°10.219 2°38.619 11.076 3.866813 34.338781 12.062033
2006-04-28 08:12:32 51°10.214 2°38.588 11.0695 3.867551 34.349064 11.994614
2006-04-28 08:12:37 51°10.209 2°38.556 11.0661 3.866497 34.342353 11.994614
2006-04-28 08:12:42 51°10.204 2°38.524 11.069 3.866602 34.347866 11.960905
2006-04-28 08:12:47 51°10.199 2°38.492 11.0629 3.866602 34.347866 11.960905
2006-04-28 08:12:52 51°10.194 2°38.461 11.0628 3.868499 34.370383 12.028324
2006-04-28 08:12:57 51°10.19 2°38.43 11.0556 3.869131 34.380376 11.994614
2006-04-28 08:13:01 51°10.185 2°38.405 11.0583 3.869764 34.388133 11.960905
2006-04-28 08:13:07 51°10.18 2°38.367 11.0533 3.869448 34.387985 11.994614
2006-04-28 08:13:12 51°10.174 2°38.335 11.0501 3.859753 34.296398 11.927195
2006-04-28 08:13:16 51°10.17 2°38.31 11.0478 3.859753 34.296398 11.927195
2006-04-28 08:13:22 51°10.164 2°38.272 11.0531 3.871134 34.411415 11.927195
2006-04-28 08:13:27 51°10.16 2°38.24 11.0438 3.871661 34.420373 11.927195
2006-04-28 08:13:32 51°10.155 2°38.209 11.039 3.872188 34.427839 12.028324
2006-04-28 08:13:38 51°10.148 2°38.171 11.0364 3.872609 34.435008 11.994614
2006-04-28 08:13:42 51°10.145 2°38.145 11.0366 3.87282 34.440837 12.062033
2006-04-28 08:13:46 51°10.14 2°38.12 11.0359 3.87282 34.440837 12.062033
2006-04-28 08:13:51 51°10.135 2°38.088 11.0355 3.873347 34.448306 12.095742
2006-04-28 08:13:57 51°10.129 2°38.051 11.0305 3.868394 34.400685 12.095742
2006-04-28 08:14:02 51°10.124 2°38.019 11.0303 3.87282 34.447569 12.163161
2006-04-28 08:14:06 51°10.121 2°37.993 11.032 3.875138 34.475058 12.163161
2006-04-28 08:14:12 51°10.115 2°37.955 11.0306 3.87556 34.482236 12.163161
2006-04-28 08:14:15 51°10.112 2°37.935 11.0266 3.87556 34.482236 12.163161
2006-04-28 08:14:22 51°10.105 2°37.891 11.0204 3.875665 34.484031 12.129452
2006-04-28 08:14:27 51°10.099 2°37.859 11.0229 3.876298 34.493303 12.129452
2006-04-28 08:14:32 51°10.094 2°37.828 11.0229 3.876719 34.498985 12.062033
2006-04-28 08:14:37 51°10.088 2°37.796 11.0221 3.874296 34.47718 12.062033
2006-04-28 08:14:42 51°10.083 2°37.764 11.0189 3.877035 34.505121 11.960905
2006-04-28 08:14:46 51°10.079 2°37.739 11.018 3.877035 34.505121 11.960905
2006-04-28 08:14:51 51°10.074 2°37.706 11.0162 3.876825 34.505279 11.927195
2006-04-28 08:14:57 51°10.068 2°37.668 11.0174 3.877668 34.515897 11.893486
2006-04-28 08:15:01 51°10.064 2°37.643 11.016 3.877984 34.522037 11.826067
2006-04-28 08:15:07 51°10.057 2°37.604 11.0136 3.8783 34.526676 11.758648
2006-04-28 08:15:12 51°10.052 2°37.573 11.0095 3.873453 34.480054 11.69123
2006-04-28 08:15:17 51°10.046 2°37.541 11.0065 3.873453 34.480054 11.69123
2006-04-28 08:15:21 51°10.042 2°37.515 11.0099 3.873558 34.4811 11.69123
2006-04-28 08:15:27 51°10.036 2°37.476 11.0094 3.867973 34.427161 11.623811
2006-04-28 08:15:32 51°10.031 2°37.444 11.0082 3.877352 34.521763 11.623811
2006-04-28 08:15:37 51°10.026 2°37.412 11.0051 3.879143 34.541053 11.65752
2006-04-28 08:15:42 51°10.021 2°37.38 11.0037 3.879986 34.551679 11.623811
2006-04-28 08:15:47 51°10.016 2°37.348 11.0051 3.879986 34.551679 11.623811
2006-04-28 08:15:52 51°10.011 2°37.316 11.0027 3.878827 34.541669 11.623811
2006-04-28 08:15:57 51°10.007 2°37.284 11.0064 3.881356 34.569043 11.623811
2006-04-28 08:16:01 51°10.004 2°37.259 11.0043 3.881672 34.572184 11.623811
2006-04-28 08:16:06 51°9.999 2°37.227 11.0096 3.879038 34.546767 11.590101
2006-04-28 08:16:11 51°9.995 2°37.195 11.0092 3.878827 34.546177 11.69123
2006-04-28 08:16:17 51°9.989 2°37.157 11.0107 3.878827 34.546177 11.69123
2006-04-28 08:16:21 51°9.985 2°37.132 11.0099 3.881356 34.572803 11.758648
2006-04-28 08:16:25 51°9.981 2°37.107 11.0119 3.88378 34.597634 11.859777
2006-04-28 08:16:31 51°9.975 2°37.068 11.0141 3.884517 34.604211 12.163161
2006-04-28 08:16:37 51°9.968 2°37.031 11.0165 3.886098 34.619917 12.533965
2006-04-28 08:16:41 51°9.964 2°37.006 11.0163 3.887152 34.629635 12.904768
2006-04-28 08:16:46 51°9.959 2°36.974 11.0158 3.887152 34.629635 12.904768
2006-04-28 08:16:51 51°9.956 2°36.941 11.0152 3.885993 34.616611 13.275571
2006-04-28 08:16:57 51°9.952 2°36.903 11.0186 3.884517 34.601201 13.646375
2006-04-28 08:17:02 51°9.951 2°36.871 11.0149 3.888311 34.638893 13.781212
2006-04-28 08:17:07 51°9.95 2°36.838 11.0134 3.885782 34.613011 13.882341
2006-04-28 08:17:11 51°9.949 2°36.812 11.0124 3.886836 34.620469 13.91605
2006-04-28 08:17:17 51°9.949 2°36.774 11.0174 3.886836 34.620469 13.91605
2006-04-28 08:17:21 51°9.949 2°36.748 11.0094 3.890102 34.650665 13.949759
2006-04-28 08:17:28 51°9.949 2°36.702 11.0085 3.892105 34.669051 13.949759
2006-04-28 08:17:32 51°9.949 2°36.677 11.0087 3.891262 34.659922 14.017178
2006-04-28 08:17:37 51°9.95 2°36.645 11.0027 3.890629 34.654393 14.084597
2006-04-28 08:17:42 51°9.95 2°36.612 11.0058 3.893264 34.682077 14.084597
2006-04-28 08:17:48 51°9.95 2°36.573 11.0002 3.893264 34.682077 14.084597
2006-04-28 08:17:52 51°9.95 2°36.548 10.9951 3.887573 34.626292 14.118306
2006-04-28 08:17:57 51°9.95 2°36.515 10.9926 3.89358 34.686727 14.185725
2006-04-28 08:18:01 51°9.951 2°36.489 10.9927 3.892842 34.680905 14.219435
2006-04-28 08:18:05 51°9.951 2°36.464 10.9877 3.892632 34.681074 14.320563
2006-04-28 08:18:12 51°9.951 2°36.419 10.9876 3.886625 34.623646 14.4554
2006-04-28 08:18:16 51°9.951 2°36.393 10.9863 3.886625 34.623646 14.4554
2006-04-28 08:18:22 51°9.952 2°36.355 10.9914 3.893896 34.698169 14.4554
2006-04-28 08:18:27 51°9.954 2°36.323 10.9868 3.881567 34.577153 14.387982
2006-04-28 08:18:32 51°9.956 2°36.292 10.9885 3.884412 34.609186 14.185725
2006-04-28 08:18:37 51°9.959 2°36.261 10.9796 3.89221 34.690465 13.814922
2006-04-28 08:18:41 51°9.961 2°36.236 10.9659 3.88789 34.649776 13.578956
2006-04-28 08:18:47 51°9.966 2°36.199 10.9627 3.88789 34.649776 13.578956
2006-04-28 08:18:52 51°9.969 2°36.169 10.953 3.889365 34.665951 13.3767
2006-04-28 08:18:57 51°9.973 2°36.138 10.9472 3.883569 34.609091 13.275571
2006-04-28 08:19:01 51°9.976 2°36.114 10.9399 3.881989 34.594133 13.073315
2006-04-28 08:19:05 51°9.98 2°36.09 10.9343 3.892421 34.6986 12.80364
2006-04-28 08:19:12 51°9.985 2°36.048 10.9297 3.891683 34.695041 12.399127
2006-04-28 08:19:16 51°9.988 2°36.023 10.9261 3.891683 34.695041 12.399127
2006-04-28 08:19:22 51°9.993 2°35.987 10.9265 3.891262 34.698401 12.129452
2006-04-28 08:19:25 51°9.997 2°35.97 10.917 3.89063 34.696644 11.859777
2006-04-28 08:19:32 51°10.006 2°35.93 10.9187 3.892421 34.724295 11.556392
2006-04-28 08:19:37 51°10.013 2°35.902 10.916 3.887153 34.680177 11.320426
2006-04-28 08:19:42 51°10.021 2°35.874 10.9066 3.890736 34.724913 11.219298
2006-04-28 08:19:46 51°10.028 2°35.853 10.9099 3.890736 34.724913 11.219298
2006-04-28 08:19:52 51°10.039 2°35.822 10.8997 3.890736 34.728697 11.11817
2006-04-28 08:19:57 51°10.05 2°35.797 10.891 3.882832 34.653795 11.08446
2006-04-28 08:20:01 51°10.059 2°35.779 10.8814 3.888417 34.713181 10.983332
2006-04-28 08:20:05 51°10.068 2°35.761 10.8641 3.887048 34.703323 10.949623
2006-04-28 08:20:11 51°10.083 2°35.735 10.86 3.888839 34.724949 10.915913
2006-04-28 08:20:16 51°10.097 2°35.717 10.8398 3.888839 34.724949 10.915913
2006-04-28 08:20:22 51°10.114 2°35.696 10.8274 3.884729 34.686287 10.882204
2006-04-28 08:20:26 51°10.125 2°35.684 10.8053 3.887575 34.719168 10.814785
2006-04-28 08:20:32 51°10.143 2°35.668 10.7993 3.887996 34.728669 10.747366
2006-04-28 08:20:35 51°10.153 2°35.661 10.7972 3.885573 34.715124 10.713657
2006-04-28 08:20:42 51°10.175 2°35.649 10.7797 3.876089 34.633478 10.679947
2006-04-28 08:20:47 51°10.191 2°35.641 10.7659 3.876089 34.633478 10.679947
2006-04-28 08:20:52 51°10.208 2°35.635 10.7632 3.878302 34.66764 10.679947
2006-04-28 08:20:57 51°10.224 2°35.63 10.7518 3.880304 34.69897 10.679947
2006-04-28 08:21:02 51°10.241 2°35.625 10.7479 3.874193 34.652402 10.679947
2006-04-28 08:21:07 51°10.258 2°35.622 10.7485 3.88452 34.774446 10.646238
2006-04-28 08:21:12 51°10.275 2°35.62 10.738 3.879989 34.739081 10.646238
2006-04-28 08:21:17 51°10.292 2°35.62 10.7412 3.879989 34.739081 10.646238
2006-04-28 08:21:21 51°10.305 2°35.621 10.7339 3.883361 34.786459 10.646238
2006-04-28 08:21:27 51°10.325 2°35.623 10.729 3.879567 34.761491 10.646238
2006-04-28 08:21:32 51°10.341 2°35.626 10.7236 3.877987 34.75635 10.679947
2006-04-28 08:21:37 51°10.358 2°35.63 10.7254 3.881781 34.801899 10.679947
2006-04-28 08:21:42 51°10.374 2°35.636 10.7145 3.877671 34.766136 10.646238
2006-04-28 08:21:47 51°10.39 2°35.644 10.7118 3.877671 34.766136 10.646238
2006-04-28 08:21:50 51°10.398 2°35.65 10.7091 3.876512 34.7614 10.646238
2006-04-28 08:21:56 51°10.416 2°35.663 10.7003 3.872086 34.722466 10.646238
2006-04-28 08:22:02 51°10.433 2°35.677 10.7057 3.875037 34.756549 10.646238
2006-04-28 08:22:07 51°10.448 2°35.689 10.6941 3.878936 34.800136 10.612529
2006-04-28 08:22:12 51°10.461 2°35.702 10.6835 3.874932 34.763117 10.54511
2006-04-28 08:22:17 51°10.475 2°35.715 10.6867 3.874932 34.763117 10.54511
2006-04-28 08:22:22 51°10.489 2°35.729 10.6896 3.874405 34.760132 10.578819
2006-04-28 08:22:27 51°10.503 2°35.743 10.6893 3.876934 34.791546 10.54511
2006-04-28 08:22:32 51°10.516 2°35.756 10.6774 3.877988 34.808203 10.477691
2006-04-28 08:22:37 51°10.53 2°35.77 10.6743 3.87725 34.807691 10.443982
2006-04-28 08:22:42 51°10.544 2°35.784 10.6743 3.874827 34.789531 10.410272
2006-04-28 08:22:46 51°10.555 2°35.794 10.6774 3.874827 34.789531 10.410272
2006-04-28 08:22:52 51°10.571 2°35.81 10.6764 3.869452 34.743346 10.410272
2006-04-28 08:22:55 51°10.58 2°35.818 10.6778 3.874721 34.797642 10.410272
2006-04-28 08:23:02 51°10.599 2°35.837 10.6766 3.875143 34.803393 10.376563
2006-04-28 08:23:07 51°10.613 2°35.849 10.6796 3.875986 34.816425 10.342853
2006-04-28 08:23:12 51°10.627 2°35.862 10.6805 3.86882 34.748458 10.342853
2006-04-28 08:23:18 51°10.645 2°35.876 10.6797 3.86882 34.748458 10.342853
2006-04-28 08:23:21 51°10.653 2°35.883 10.6837 3.874827 34.812457 10.376563
2006-04-28 08:23:27 51°10.671 2°35.898 10.6828 3.863657 34.702076 10.376563
2006-04-28 08:23:31 51°10.682 2°35.907 10.6849 3.871982 34.787005 10.342853
2006-04-28 08:23:37 51°10.699 2°35.922 10.6849 3.864605 34.712339 10.342853
2006-04-28 08:23:41 51°10.71 2°35.933 10.6849 3.863868 34.704187 10.309144
2006-04-28 08:23:46 51°10.724 2°35.946 10.6807 3.863868 34.704187 10.309144
2006-04-28 08:23:51 51°10.738 2°35.96 10.6815 3.873773 34.801898 10.309144
2006-04-28 08:23:57 51°10.754 2°35.977 10.6757 3.8743 34.805648 10.309144
2006-04-28 08:24:02 51°10.768 2°35.992 10.6723 3.875038 34.812275 10.309144
2006-04-28 08:24:07 51°10.781 2°36.006 10.6687 3.873773 34.79884 10.309144
2006-04-28 08:24:12 51°10.795 2°36.019 10.6656 3.874932 34.80969 10.376563
2006-04-28 08:24:17 51°10.809 2°36.033 10.665 3.874932 34.80969 10.376563
2006-04-28 08:24:22 51°10.823 2°36.046 10.6593 3.874932 34.808161 10.410272
2006-04-28 08:24:26 51°10.834 2°36.056 10.6517 3.866502 34.726 10.477691
2006-04-28 08:24:32 51°10.851 2°36.071 10.6486 3.874721 34.810637 10.477691
2006-04-28 08:24:35 51°10.86 2°36.079 10.645 3.874721 34.813696 10.477691
2006-04-28 08:24:42 51°10.88 2°36.097 10.6389 3.870823 34.780738 10.5114
2006-04-28 08:24:48 51°10.896 2°36.112 10.6299 3.870823 34.780738 10.5114
2006-04-28 08:24:52 51°10.908 2°36.123 10.632 3.873562 34.810492 10.54511
2006-04-28 08:24:57 51°10.922 2°36.136 10.6237 3.871982 34.798472 10.54511
2006-04-28 08:25:02 51°10.935 2°36.15 10.6157 3.868715 34.770315 10.477691
2006-04-28 08:25:07 51°10.949 2°36.164 10.6107 3.871771 34.804774 10.443982
2006-04-28 08:25:12 51°10.963 2°36.178 10.5983 3.862814 34.720328 10.410272
2006-04-28 08:25:17 51°10.976 2°36.192 10.6029 3.862814 34.720328 10.410272
2006-04-28 08:25:22 51°10.99 2°36.206 10.5926 3.864079 34.737587 10.376563
2006-04-28 08:25:27 51°11.004 2°36.22 10.587 3.863657 34.738708 10.342853
2006-04-28 08:25:32 51°11.017 2°36.234 10.5837 3.859021 34.698326 10.275435
2006-04-28 08:25:38 51°11.034 2°36.251 10.5685 3.859232 34.705783 10.241725
2006-04-28 08:25:41 51°11.042 2°36.258 10.5707 3.857546 34.697273 10.241725
2006-04-28 08:25:47 51°11.059 2°36.275 10.5646 3.857546 34.697273 10.241725
2006-04-28 08:25:52 51°11.073 2°36.288 10.5624 3.864395 34.772108 10.208016
2006-04-28 08:25:57 51°11.087 2°36.301 10.5505 3.869559 34.82853 10.140597
2006-04-28 08:26:01 51°11.098 2°36.311 10.5473 3.865765 34.795813 10.140597
2006-04-28 08:26:06 51°11.112 2°36.324 10.5423 3.860181 34.74664 10.106888
2006-04-28 08:26:11 51°11.127 2°36.336 10.5424 3.868716 34.840779 10.106888
2006-04-28 08:26:16 51°11.141 2°36.349 10.5407 3.868716 34.840779 10.106888
2006-04-28 08:26:22 51°11.158 2°36.364 10.5352 3.867768 34.837393 10.073178
2006-04-28 08:26:26 51°11.169 2°36.374 10.5435 3.867873 34.845362 10.073178
2006-04-28 08:26:32 51°11.186 2°36.39 10.5396 3.867557 34.847562 10.039469
2006-04-28 08:26:36 51°11.197 2°36.4 10.5409 3.867452 34.852649 10.039469
2006-04-28 08:26:42 51°11.214 2°36.417 10.5411 3.865977 34.843199 10.039469
2006-04-28 08:26:46 51°11.224 2°36.428 10.5429 3.865977 34.843199 10.039469
2006-04-28 08:26:52 51°11.241 2°36.444 10.548 3.866925 34.856576 10.005759
2006-04-28 08:26:57 51°11.255 2°36.458 10.549 3.865345 34.844528 9.97205
2006-04-28 08:27:01 51°11.265 2°36.469 10.554 3.863659 34.828345 10.039469
2006-04-28 08:27:08 51°11.285 2°36.488 10.561 3.862921 34.821697 10.005759
2006-04-28 08:27:12 51°11.295 2°36.499 10.5642 3.864186 34.835179 9.97205
2006-04-28 08:27:17 51°11.309 2°36.513 10.5681 3.864186 34.835179 9.97205
2006-04-28 08:27:22 51°11.323 2°36.527 10.5739 3.864186 34.835179 9.938341
2006-04-28 08:27:27 51°11.337 2°36.54 10.5784 3.863237 34.824876 9.938341
2006-04-28 08:27:33 51°11.354 2°36.556 10.5842 3.860497 34.79503 9.938341
2006-04-28 08:27:37 51°11.365 2°36.566 10.5897 3.862816 34.813727 9.938341
2006-04-28 08:27:42 51°11.379 2°36.579 10.5923 3.863448 34.817011 9.904631
2006-04-28 08:27:47 51°11.393 2°36.593 10.5948 3.863448 34.817011 9.904631
2006-04-28 08:27:52 51°11.407 2°36.605 10.6014 3.855755 34.734347 9.904631
2006-04-28 08:27:58 51°11.423 2°36.621 10.6071 3.861762 34.790859 9.904631
2006-04-28 08:28:02 51°11.435 2°36.632 10.6144 3.8586 34.753736 9.904631
2006-04-28 08:28:07 51°11.448 2°36.645 10.615 3.861551 34.778775 9.904631
2006-04-28 08:28:12 51°11.462 2°36.659 10.6178 3.859759 34.754656 9.904631
2006-04-28 08:28:17 51°11.475 2°36.673 10.6245 3.859759 34.754656 9.904631
2006-04-28 08:28:21 51°11.486 2°36.684 10.6275 3.860075 34.754002 9.904631
2006-04-28 08:28:27 51°11.502 2°36.701 10.6275 3.856071 34.709211 9.938341
2006-04-28 08:28:32 51°11.516 2°36.714 10.6325 3.858073 34.723955 9.904631
2006-04-28 08:28:37 51°11.529 2°36.729 10.6381 3.857125 34.708322 9.938341
2006-04-28 08:28:42 51°11.543 2°36.742 10.6368 3.856176 34.694222 9.938341
2006-04-28 08:28:47 51°11.556 2°36.755 10.6425 3.856176 34.694222 9.938341
2006-04-28 08:28:52 51°11.57 2°36.768 10.6419 3.854596 34.674547 9.97205
2006-04-28 08:28:57 51°11.585 2°36.781 10.6444 3.854279 34.664509 10.005759
2006-04-28 08:29:01 51°11.596 2°36.791 10.6464 3.852383 34.6432 9.97205
2006-04-28 08:29:07 51°11.613 2°36.806 10.6489 3.851013 34.625655 10.005759
2006-04-28 08:29:12 51°11.627 2°36.819 10.6516 3.846587 34.578244 10.005759
2006-04-28 08:29:16 51°11.638 2°36.83 10.6527 3.846587 34.578244 10.005759
2006-04-28 08:29:22 51°11.654 2°36.846 10.6546 3.848694 34.595563 10.039469
2006-04-28 08:29:27 51°11.668 2°36.86 10.6552 3.842688 34.533092 10.073178
2006-04-28 08:29:33 51°11.684 2°36.877 10.655 3.843952 34.543482 10.039469
2006-04-28 08:29:38 51°11.698 2°36.891 10.6581 3.845849 34.559447 10.073178
2006-04-28 08:29:42 51°11.708 2°36.902 10.6588 3.843636 34.534999 10.073178
2006-04-28 08:29:47 51°11.722 2°36.917 10.6589 3.843636 34.534999 10.073178
2006-04-28 08:29:52 51°11.736 2°36.93 10.6625 3.841634 34.511907 10.106888
2006-04-28 08:29:58 51°11.752 2°36.945 10.6614 3.841845 34.510983 10.106888
2006-04-28 08:30:02 51°11.763 2°36.956 10.6638 3.841318 34.504948 10.106888
2006-04-28 08:30:07 51°11.778 2°36.968 10.6602 3.833415 34.424302 10.174306
2006-04-28 08:30:12 51°11.793 2°36.979 10.6627 3.837314 34.462578 10.208016
2006-04-28 08:30:17 51°11.807 2°36.99 10.6641 3.837314 34.462578 10.208016
2006-04-28 08:30:22 51°11.822 2°37.002 10.6661 3.835417 34.442831 10.241725
2006-04-28 08:30:27 51°11.836 2°37.014 10.6686 3.836049 34.446889 10.241725
2006-04-28 08:30:32 51°11.85 2°37.026 10.6693 3.832045 34.405295 10.241725
2006-04-28 08:30:36 51°11.862 2°37.036 10.668 3.831308 34.397157 10.309144
2006-04-28 08:30:42 51°11.879 2°37.051 10.6733 3.827514 34.359195 10.275435
2006-04-28 08:30:46 51°11.89 2°37.061 10.6708 3.827514 34.359195 10.275435
2006-04-28 08:30:52 51°11.906 2°37.077 10.6719 3.83057 34.39053 10.275435
2006-04-28 08:30:55 51°11.915 2°37.085 10.6693 3.82625 34.345033 10.309144
2006-04-28 08:31:02 51°11.934 2°37.102 10.6712 3.831097 34.391268 10.309144
2006-04-28 08:31:07 51°11.949 2°37.115 10.6732 3.83215 34.39879 10.309144
2006-04-28 08:31:12 51°11.963 2°37.127 10.6738 3.832783 34.405116 10.275435
2006-04-28 08:31:17 51°11.977 2°37.139 10.6723 3.832783 34.405116 10.275435
2006-04-28 08:31:22 51°11.991 2°37.151 10.6736 3.828357 34.359324 10.309144
2006-04-28 08:31:27 51°12.006 2°37.163 10.6774 3.829938 34.374382 10.342853
2006-04-28 08:31:32 51°12.02 2°37.175 10.6772 3.826355 34.338541 10.342853
2006-04-28 08:31:37 51°12.035 2°37.187 10.6749 3.829305 34.368057 10.376563
2006-04-28 08:31:42 51°12.049 2°37.199 10.6793 3.829938 34.374382 10.342853
2006-04-28 08:31:47 51°12.063 2°37.211 10.6807 3.829938 34.374382 10.342853
2006-04-28 08:31:52 51°12.077 2°37.224 10.6826 3.828778 34.362031 10.410272
2006-04-28 08:31:57 51°12.091 2°37.237 10.6836 3.830781 34.381306 10.410272
2006-04-28 08:32:01 51°12.103 2°37.247 10.6868 3.826355 34.336278 10.443982
2006-04-28 08:32:06 51°12.117 2°37.26 10.6921 3.820138 34.273348 10.410272
2006-04-28 08:32:12 51°12.133 2°37.276 10.6911 3.82783 34.347262 10.410272
2006-04-28 08:32:17 51°12.147 2°37.289 10.6924 3.82783 34.347262 10.410272
2006-04-28 08:32:22 51°12.161 2°37.302 10.6949 3.825933 34.329045 10.477691
2006-04-28 08:32:27 51°12.175 2°37.315 10.6936 3.819927 34.266724 10.477691
2006-04-28 08:32:31 51°12.186 2°37.325 10.6966 3.826987 34.335059 10.477691
2006-04-28 08:32:37 51°12.203 2°37.34 10.6962 3.824774 34.311424 10.477691
2006-04-28 08:32:41 51°12.215 2°37.349 10.6989 3.821929 34.279966 10.5114
2006-04-28 08:32:48 51°12.235 2°37.366 10.704 3.821929 34.279966 10.5114
2006-04-28 08:32:52 51°12.246 2°37.376 10.7029 3.824563 34.30329 10.5114
2006-04-28 08:32:58 51°12.263 2°37.39 10.7066 3.821297 34.269883 10.5114
2006-04-28 08:33:02 51°12.275 2°37.399 10.7086 3.822561 34.281017 10.5114
2006-04-28 08:33:05 51°12.284 2°37.406 10.7097 3.82372 34.291097 10.5114
2006-04-28 08:33:11 51°12.301 2°37.42 10.7115 3.822351 34.276653 10.54511
2006-04-28 08:33:17 51°12.318 2°37.435 10.7158 3.822351 34.276653 10.54511
2006-04-28 08:33:21 51°12.329 2°37.445 10.7209 3.818768 34.240095 10.5114
2006-04-28 08:33:27 51°12.346 2°37.46 10.7224 3.818452 34.23393 10.5114
2006-04-28 08:33:31 51°12.357 2°37.471 10.7227 3.819505 34.241453 10.54511
2006-04-28 08:33:37 51°12.374 2°37.486 10.7223 3.817293 34.21634 10.578819
2006-04-28 08:33:41 51°12.385 2°37.496 10.7284 3.820454 34.246419 10.54511
2006-04-28 08:33:47 51°12.402 2°37.511 10.728 3.820454 34.246419 10.54511
2006-04-28 08:33:51 51°12.413 2°37.521 10.7279 3.819084 34.23048 10.54511
2006-04-28 08:33:56 51°12.427 2°37.534 10.7307 3.82077 34.244316 10.612529
2006-04-28 08:34:02 51°12.444 2°37.548 10.733 3.819295 34.225826 10.578819
2006-04-28 08:34:07 51°12.459 2°37.561 10.733 3.817714 34.207788 10.578819
2006-04-28 08:34:12 51°12.473 2°37.573 10.7356 3.816028 34.188703 10.578819
2006-04-28 08:34:17 51°12.487 2°37.585 10.7338 3.816028 34.188703 10.578819
2006-04-28 08:34:21 51°12.499 2°37.594 10.7363 3.815185 34.178786 10.646238
2006-04-28 08:34:27 51°12.516 2°37.609 10.7381 3.81529 34.178339 10.679947
2006-04-28 08:34:32 51°12.53 2°37.622 10.7393 3.808441 34.107725 10.713657
2006-04-28 08:34:37 51°12.544 2°37.634 10.7389 3.815817 34.179851 10.713657
2006-04-28 08:34:41 51°12.555 2°37.644 10.7383 3.81666 34.186017 10.713657
2006-04-28 08:34:47 51°12.573 2°37.659 10.7383 3.81666 34.186017 10.713657
2006-04-28 08:34:51 51°12.584 2°37.669 10.7399 3.815817 34.176104 10.747366
2006-04-28 08:34:57 51°12.601 2°37.683 10.7426 3.816449 34.181665 10.781076
2006-04-28 08:35:01 51°12.612 2°37.693 10.7436 3.818662 34.202254 10.781076
2006-04-28 08:35:06 51°12.627 2°37.705 10.7451 3.814131 34.155531 10.781076
2006-04-28 08:35:11 51°12.641 2°37.717 10.7428 3.813815 34.151627 10.747366
2006-04-28 08:35:17 51°12.658 2°37.731 10.7445 3.813815 34.151627 10.747366
2006-04-28 08:35:22 51°12.672 2°37.743 10.7431 3.81529 34.16635 10.781076
2006-04-28 08:35:27 51°12.687 2°37.755 10.7462 3.814974 34.163195 10.781076
2006-04-28 08:35:32 51°12.701 2°37.767 10.7451 3.812867 34.140667 10.781076
2006-04-28 08:35:37 51°12.715 2°37.78 10.7426 3.813077 34.141273 10.781076
2006-04-28 08:35:42 51°12.729 2°37.792 10.7481 3.809811 34.107185 10.814785
2006-04-28 08:35:47 51°12.743 2°37.806 10.7436 3.809811 34.107185 10.814785
2006-04-28 08:35:52 51°12.757 2°37.818 10.7448 3.814658 34.155547 10.781076
2006-04-28 08:35:57 51°12.771 2°37.831 10.7432 3.812867 34.136925 10.814785
2006-04-28 08:36:02 51°12.786 2°37.843 10.744 3.813815 34.146387 10.781076
2006-04-28 08:36:06 51°12.797 2°37.853 10.7454 3.811391 34.12071 10.814785
2006-04-28 08:36:11 51°12.811 2°37.865 10.7494 3.808336 34.091721 10.848494
2006-04-28 08:36:17 51°12.828 2°37.879 10.7499 3.808336 34.091721 10.848494
2006-04-28 08:36:21 51°12.84 2°37.888 10.7514 3.811075 34.118305 10.848494
2006-04-28 08:36:27 51°12.857 2°37.903 10.7478 3.811813 34.125663 10.814785
2006-04-28 08:36:31 51°12.868 2°37.913 10.7497 3.807071 34.077614 10.882204
2006-04-28 08:36:37 51°12.885 2°37.928 10.752 3.808863 34.09623 10.882204
2006-04-28 08:36:41 51°12.897 2°37.938 10.7504 3.809389 34.09999 10.882204
2006-04-28 08:36:47 51°12.914 2°37.953 10.7489 3.809389 34.09999 10.882204
2006-04-28 08:36:52 51°12.928 2°37.965 10.7493 3.806123 34.066661 10.882204
2006-04-28 08:36:57 51°12.942 2°37.977 10.7511 3.806966 34.074322 10.882204
2006-04-28 08:37:01 51°12.954 2°37.987 10.7483 3.805491 34.058116 10.915913
2006-04-28 08:37:06 51°12.968 2°37.998 10.7505 3.806334 34.066523 10.915913
2006-04-28 08:37:11 51°12.983 2°38.01 10.7521 3.804859 34.051065 10.949623
2006-04-28 08:37:18 51°13.003 2°38.026 10.7555 3.804859 34.051065 10.949623
2006-04-28 08:37:22 51°13.015 2°38.036 10.754 3.807387 34.077032 10.983332
2006-04-28 08:37:26 51°13.026 2°38.045 10.757 3.803173 34.034253 11.017042
2006-04-28 08:37:32 51°13.044 2°38.059 10.757 3.804753 34.050761 11.050751
2006-04-28 08:37:35 51°13.052 2°38.067 10.7573 3.802857 34.031101 11.08446
2006-04-28 08:37:42 51°13.073 2°38.085 10.7559 3.803805 34.040558 11.11817
2006-04-28 08:37:47 51°13.087 2°38.097 10.7598 3.803805 34.040558 11.11817
2006-04-28 08:37:52 51°13.101 2°38.11 10.758 3.801381 34.016392 11.151879
2006-04-28 08:37:57 51°13.116 2°38.123 10.7594 3.804332 34.043573 11.185589
2006-04-28 08:38:01 51°13.127 2°38.133 10.7636 3.804121 34.040726 11.253007
2006-04-28 08:38:07 51°13.144 2°38.149 10.7622 3.800538 34.002771 11.320426